<?xml version="1.0" encoding="UTF-8" standalone="no" ?>
<gpx xmlns="http://www.topografix.com/GPX/1/1" xmlns:xsi="http://www.w3.org/2001/XMLSchema-instance" xsi:schemaLocation="http://www.topografix.com/GPX/1/1 http://www.topografix.com/GPX/1/1/gpx.xsd" version="1.1" creator="VisuGPX - https://www.visugpx.com">
  <metadata>
    <name>Combe de Balafrasse (Bornes)</name>
    <desc><![CDATA[Départ de la cote 1400 m route du Col de la Colombière.
Photos et commentaires sur : [url]http://www.photosrandos.fr[/url]]]></desc>
  </metadata>
  <trk>
    <name><![CDATA[29 janv. 2018 à 09:10:54]]></name>
    <cmt><![CDATA[29 janv. 2018 à 09:10:54]]></cmt>
    <trkseg>
      <trkpt lat="45.9774" lon="6.46912">
        <ele>1396</ele>
        <time>2018-01-29T08:13:27Z</time>
      </trkpt>
      <trkpt lat="45.9775" lon="6.46907">
        <ele>1397</ele>
        <time>2018-01-29T08:13:36Z</time>
      </trkpt>
      <trkpt lat="45.97776" lon="6.46895">
        <ele>1398</ele>
        <time>2018-01-29T08:14:00Z</time>
      </trkpt>
      <trkpt lat="45.97782" lon="6.46896">
        <ele>1399</ele>
        <time>2018-01-29T08:14:12Z</time>
      </trkpt>
      <trkpt lat="45.97789" lon="6.46898">
        <ele>1400</ele>
        <time>2018-01-29T08:14:22Z</time>
      </trkpt>
      <trkpt lat="45.97794" lon="6.46894">
        <ele>1401</ele>
        <time>2018-01-29T08:14:28Z</time>
      </trkpt>
      <trkpt lat="45.97808" lon="6.46889">
        <ele>1402</ele>
        <time>2018-01-29T08:14:41Z</time>
      </trkpt>
      <trkpt lat="45.97811" lon="6.46885">
        <ele>1402</ele>
        <time>2018-01-29T08:14:46Z</time>
      </trkpt>
      <trkpt lat="45.97814" lon="6.46878">
        <ele>1403</ele>
        <time>2018-01-29T08:14:51Z</time>
      </trkpt>
      <trkpt lat="45.97822" lon="6.46874">
        <ele>1404</ele>
        <time>2018-01-29T08:15:08Z</time>
      </trkpt>
      <trkpt lat="45.97825" lon="6.46866">
        <ele>1404</ele>
        <time>2018-01-29T08:15:12Z</time>
      </trkpt>
      <trkpt lat="45.97828" lon="6.4686">
        <ele>1404</ele>
        <time>2018-01-29T08:15:18Z</time>
      </trkpt>
      <trkpt lat="45.97833" lon="6.46857">
        <ele>1404</ele>
        <time>2018-01-29T08:15:24Z</time>
      </trkpt>
      <trkpt lat="45.97841" lon="6.46843">
        <ele>1405</ele>
        <time>2018-01-29T08:15:37Z</time>
      </trkpt>
      <trkpt lat="45.97845" lon="6.46841">
        <ele>1405</ele>
        <time>2018-01-29T08:15:43Z</time>
      </trkpt>
      <trkpt lat="45.97849" lon="6.46836">
        <ele>1405</ele>
        <time>2018-01-29T08:15:48Z</time>
      </trkpt>
      <trkpt lat="45.97851" lon="6.4683">
        <ele>1406</ele>
        <time>2018-01-29T08:15:52Z</time>
      </trkpt>
      <trkpt lat="45.97855" lon="6.4682">
        <ele>1406</ele>
        <time>2018-01-29T08:16:52Z</time>
      </trkpt>
      <trkpt lat="45.97857" lon="6.46815">
        <ele>1407</ele>
        <time>2018-01-29T08:17:00Z</time>
      </trkpt>
      <trkpt lat="45.97861" lon="6.46804">
        <ele>1408</ele>
        <time>2018-01-29T08:17:20Z</time>
      </trkpt>
      <trkpt lat="45.97866" lon="6.46803">
        <ele>1410</ele>
        <time>2018-01-29T08:17:41Z</time>
      </trkpt>
      <trkpt lat="45.97865" lon="6.46795">
        <ele>1411</ele>
        <time>2018-01-29T08:18:15Z</time>
      </trkpt>
      <trkpt lat="45.97876" lon="6.4678">
        <ele>1412</ele>
        <time>2018-01-29T08:18:31Z</time>
      </trkpt>
      <trkpt lat="45.97885" lon="6.46747">
        <ele>1414</ele>
        <time>2018-01-29T08:19:00Z</time>
      </trkpt>
      <trkpt lat="45.97891" lon="6.46735">
        <ele>1414</ele>
        <time>2018-01-29T08:19:11Z</time>
      </trkpt>
      <trkpt lat="45.97896" lon="6.46717">
        <ele>1415</ele>
        <time>2018-01-29T08:19:23Z</time>
      </trkpt>
      <trkpt lat="45.97908" lon="6.46697">
        <ele>1416</ele>
        <time>2018-01-29T08:19:40Z</time>
      </trkpt>
      <trkpt lat="45.97913" lon="6.46695">
        <ele>1417</ele>
        <time>2018-01-29T08:19:45Z</time>
      </trkpt>
      <trkpt lat="45.97918" lon="6.46691">
        <ele>1417</ele>
        <time>2018-01-29T08:19:52Z</time>
      </trkpt>
      <trkpt lat="45.97918" lon="6.46698">
        <ele>1417</ele>
        <time>2018-01-29T08:20:02Z</time>
      </trkpt>
      <trkpt lat="45.97923" lon="6.46686">
        <ele>1418</ele>
        <time>2018-01-29T08:20:09Z</time>
      </trkpt>
      <trkpt lat="45.9793" lon="6.46677">
        <ele>1418</ele>
        <time>2018-01-29T08:20:19Z</time>
      </trkpt>
      <trkpt lat="45.97937" lon="6.46665">
        <ele>1419</ele>
        <time>2018-01-29T08:20:29Z</time>
      </trkpt>
      <trkpt lat="45.97943" lon="6.46675">
        <ele>1419</ele>
        <time>2018-01-29T08:20:39Z</time>
      </trkpt>
      <trkpt lat="45.97952" lon="6.4667">
        <ele>1420</ele>
        <time>2018-01-29T08:20:50Z</time>
      </trkpt>
      <trkpt lat="45.97963" lon="6.46658">
        <ele>1421</ele>
        <time>2018-01-29T08:21:06Z</time>
      </trkpt>
      <trkpt lat="45.97971" lon="6.46654">
        <ele>1422</ele>
        <time>2018-01-29T08:21:19Z</time>
      </trkpt>
      <trkpt lat="45.97974" lon="6.4664">
        <ele>1423</ele>
        <time>2018-01-29T08:21:31Z</time>
      </trkpt>
      <trkpt lat="45.97983" lon="6.46639">
        <ele>1424</ele>
        <time>2018-01-29T08:21:43Z</time>
      </trkpt>
      <trkpt lat="45.97992" lon="6.46634">
        <ele>1424</ele>
        <time>2018-01-29T08:21:54Z</time>
      </trkpt>
      <trkpt lat="45.97998" lon="6.46623">
        <ele>1425</ele>
        <time>2018-01-29T08:22:03Z</time>
      </trkpt>
      <trkpt lat="45.98007" lon="6.46618">
        <ele>1426</ele>
        <time>2018-01-29T08:22:15Z</time>
      </trkpt>
      <trkpt lat="45.98022" lon="6.46595">
        <ele>1428</ele>
        <time>2018-01-29T08:22:40Z</time>
      </trkpt>
      <trkpt lat="45.98047" lon="6.46577">
        <ele>1430</ele>
        <time>2018-01-29T08:23:09Z</time>
      </trkpt>
      <trkpt lat="45.98055" lon="6.46576">
        <ele>1431</ele>
        <time>2018-01-29T08:23:29Z</time>
      </trkpt>
      <trkpt lat="45.98059" lon="6.46581">
        <ele>1432</ele>
        <time>2018-01-29T08:23:36Z</time>
      </trkpt>
      <trkpt lat="45.98065" lon="6.46581">
        <ele>1432</ele>
        <time>2018-01-29T08:23:41Z</time>
      </trkpt>
      <trkpt lat="45.98074" lon="6.46578">
        <ele>1432</ele>
        <time>2018-01-29T08:23:48Z</time>
      </trkpt>
      <trkpt lat="45.98087" lon="6.46582">
        <ele>1434</ele>
        <time>2018-01-29T08:24:21Z</time>
      </trkpt>
      <trkpt lat="45.98095" lon="6.46574">
        <ele>1434</ele>
        <time>2018-01-29T08:24:29Z</time>
      </trkpt>
      <trkpt lat="45.98139" lon="6.46568">
        <ele>1439</ele>
        <time>2018-01-29T08:25:19Z</time>
      </trkpt>
      <trkpt lat="45.98144" lon="6.46566">
        <ele>1439</ele>
        <time>2018-01-29T08:25:29Z</time>
      </trkpt>
      <trkpt lat="45.98163" lon="6.46562">
        <ele>1441</ele>
        <time>2018-01-29T08:25:46Z</time>
      </trkpt>
      <trkpt lat="45.98177" lon="6.4656">
        <ele>1442</ele>
        <time>2018-01-29T08:26:00Z</time>
      </trkpt>
      <trkpt lat="45.98198" lon="6.46557">
        <ele>1444</ele>
        <time>2018-01-29T08:26:23Z</time>
      </trkpt>
      <trkpt lat="45.98212" lon="6.4655">
        <ele>1444</ele>
        <time>2018-01-29T08:26:38Z</time>
      </trkpt>
      <trkpt lat="45.9824" lon="6.46542">
        <ele>1447</ele>
        <time>2018-01-29T08:27:13Z</time>
      </trkpt>
      <trkpt lat="45.98261" lon="6.46539">
        <ele>1449</ele>
        <time>2018-01-29T08:27:42Z</time>
      </trkpt>
      <trkpt lat="45.9827" lon="6.46535">
        <ele>1449</ele>
        <time>2018-01-29T08:27:50Z</time>
      </trkpt>
      <trkpt lat="45.98288" lon="6.46535">
        <ele>1452</ele>
        <time>2018-01-29T08:28:15Z</time>
      </trkpt>
      <trkpt lat="45.98299" lon="6.4653">
        <ele>1453</ele>
        <time>2018-01-29T08:28:30Z</time>
      </trkpt>
      <trkpt lat="45.98318" lon="6.46535">
        <ele>1455</ele>
        <time>2018-01-29T08:29:03Z</time>
      </trkpt>
      <trkpt lat="45.98347" lon="6.46542">
        <ele>1457</ele>
        <time>2018-01-29T08:29:35Z</time>
      </trkpt>
      <trkpt lat="45.98364" lon="6.46553">
        <ele>1458</ele>
        <time>2018-01-29T08:29:54Z</time>
      </trkpt>
      <trkpt lat="45.98393" lon="6.46558">
        <ele>1461</ele>
        <time>2018-01-29T08:30:35Z</time>
      </trkpt>
      <trkpt lat="45.98402" lon="6.4656">
        <ele>1463</ele>
        <time>2018-01-29T08:30:46Z</time>
      </trkpt>
      <trkpt lat="45.98431" lon="6.46567">
        <ele>1464</ele>
        <time>2018-01-29T08:31:19Z</time>
      </trkpt>
      <trkpt lat="45.98463" lon="6.46578">
        <ele>1467</ele>
        <time>2018-01-29T08:32:07Z</time>
      </trkpt>
      <trkpt lat="45.98471" lon="6.46586">
        <ele>1468</ele>
        <time>2018-01-29T08:32:24Z</time>
      </trkpt>
      <trkpt lat="45.98488" lon="6.46597">
        <ele>1470</ele>
        <time>2018-01-29T08:32:51Z</time>
      </trkpt>
      <trkpt lat="45.98496" lon="6.46605">
        <ele>1471</ele>
        <time>2018-01-29T08:33:08Z</time>
      </trkpt>
      <trkpt lat="45.98524" lon="6.46613">
        <ele>1473</ele>
        <time>2018-01-29T08:33:39Z</time>
      </trkpt>
      <trkpt lat="45.98551" lon="6.46625">
        <ele>1475</ele>
        <time>2018-01-29T08:34:09Z</time>
      </trkpt>
      <trkpt lat="45.9856" lon="6.4663">
        <ele>1476</ele>
        <time>2018-01-29T08:34:17Z</time>
      </trkpt>
      <trkpt lat="45.98573" lon="6.46648">
        <ele>1478</ele>
        <time>2018-01-29T08:34:38Z</time>
      </trkpt>
      <trkpt lat="45.98577" lon="6.4666">
        <ele>1479</ele>
        <time>2018-01-29T08:34:53Z</time>
      </trkpt>
      <trkpt lat="45.98597" lon="6.46687">
        <ele>1482</ele>
        <time>2018-01-29T08:35:28Z</time>
      </trkpt>
      <trkpt lat="45.98603" lon="6.46698">
        <ele>1483</ele>
        <time>2018-01-29T08:35:40Z</time>
      </trkpt>
      <trkpt lat="45.98625" lon="6.46726">
        <ele>1485</ele>
        <time>2018-01-29T08:36:12Z</time>
      </trkpt>
      <trkpt lat="45.98624" lon="6.46739">
        <ele>1485</ele>
        <time>2018-01-29T08:36:23Z</time>
      </trkpt>
      <trkpt lat="45.9864" lon="6.46772">
        <ele>1489</ele>
        <time>2018-01-29T08:36:54Z</time>
      </trkpt>
      <trkpt lat="45.98647" lon="6.46782">
        <ele>1489</ele>
        <time>2018-01-29T08:37:07Z</time>
      </trkpt>
      <trkpt lat="45.98659" lon="6.46803">
        <ele>1490</ele>
        <time>2018-01-29T08:37:28Z</time>
      </trkpt>
      <trkpt lat="45.98668" lon="6.46842">
        <ele>1492</ele>
        <time>2018-01-29T08:37:58Z</time>
      </trkpt>
      <trkpt lat="45.9868" lon="6.46863">
        <ele>1494</ele>
        <time>2018-01-29T08:38:21Z</time>
      </trkpt>
      <trkpt lat="45.9869" lon="6.46901">
        <ele>1496</ele>
        <time>2018-01-29T08:38:54Z</time>
      </trkpt>
      <trkpt lat="45.98695" lon="6.46913">
        <ele>1497</ele>
        <time>2018-01-29T08:39:08Z</time>
      </trkpt>
      <trkpt lat="45.98698" lon="6.46925">
        <ele>1498</ele>
        <time>2018-01-29T08:39:18Z</time>
      </trkpt>
      <trkpt lat="45.98707" lon="6.46931">
        <ele>1499</ele>
        <time>2018-01-29T08:39:29Z</time>
      </trkpt>
      <trkpt lat="45.98721" lon="6.46951">
        <ele>1500</ele>
        <time>2018-01-29T08:39:54Z</time>
      </trkpt>
      <trkpt lat="45.98726" lon="6.46963">
        <ele>1501</ele>
        <time>2018-01-29T08:40:08Z</time>
      </trkpt>
      <trkpt lat="45.98732" lon="6.46973">
        <ele>1502</ele>
        <time>2018-01-29T08:40:18Z</time>
      </trkpt>
      <trkpt lat="45.98747" lon="6.46989">
        <ele>1503</ele>
        <time>2018-01-29T08:40:39Z</time>
      </trkpt>
      <trkpt lat="45.98755" lon="6.46997">
        <ele>1503</ele>
        <time>2018-01-29T08:40:49Z</time>
      </trkpt>
      <trkpt lat="45.98768" lon="6.47017">
        <ele>1505</ele>
        <time>2018-01-29T08:41:13Z</time>
      </trkpt>
      <trkpt lat="45.98782" lon="6.47054">
        <ele>1508</ele>
        <time>2018-01-29T08:41:47Z</time>
      </trkpt>
      <trkpt lat="45.98795" lon="6.47074">
        <ele>1510</ele>
        <time>2018-01-29T08:42:14Z</time>
      </trkpt>
      <trkpt lat="45.988" lon="6.47089">
        <ele>1513</ele>
        <time>2018-01-29T08:42:44Z</time>
      </trkpt>
      <trkpt lat="45.98804" lon="6.47114">
        <ele>1514</ele>
        <time>2018-01-29T08:42:58Z</time>
      </trkpt>
      <trkpt lat="45.9881" lon="6.47126">
        <ele>1514</ele>
        <time>2018-01-29T08:43:10Z</time>
      </trkpt>
      <trkpt lat="45.98809" lon="6.47159">
        <ele>1518</ele>
        <time>2018-01-29T08:43:43Z</time>
      </trkpt>
      <trkpt lat="45.98815" lon="6.47169">
        <ele>1520</ele>
        <time>2018-01-29T08:43:56Z</time>
      </trkpt>
      <trkpt lat="45.98817" lon="6.47183">
        <ele>1521</ele>
        <time>2018-01-29T08:44:10Z</time>
      </trkpt>
      <trkpt lat="45.98816" lon="6.47196">
        <ele>1524</ele>
        <time>2018-01-29T08:44:24Z</time>
      </trkpt>
      <trkpt lat="45.9882" lon="6.47208">
        <ele>1525</ele>
        <time>2018-01-29T08:44:36Z</time>
      </trkpt>
      <trkpt lat="45.98825" lon="6.47248">
        <ele>1532</ele>
        <time>2018-01-29T08:45:25Z</time>
      </trkpt>
      <trkpt lat="45.98836" lon="6.47271">
        <ele>1536</ele>
        <time>2018-01-29T08:45:53Z</time>
      </trkpt>
      <trkpt lat="45.98846" lon="6.47272">
        <ele>1537</ele>
        <time>2018-01-29T08:46:06Z</time>
      </trkpt>
      <trkpt lat="45.98859" lon="6.47283">
        <ele>1542</ele>
        <time>2018-01-29T08:46:34Z</time>
      </trkpt>
      <trkpt lat="45.98879" lon="6.4728">
        <ele>1548</ele>
        <time>2018-01-29T08:47:04Z</time>
      </trkpt>
      <trkpt lat="45.98893" lon="6.47281">
        <ele>1549</ele>
        <time>2018-01-29T08:47:14Z</time>
      </trkpt>
      <trkpt lat="45.98895" lon="6.47295">
        <ele>1553</ele>
        <time>2018-01-29T08:47:51Z</time>
      </trkpt>
      <trkpt lat="45.98903" lon="6.47303">
        <ele>1554</ele>
        <time>2018-01-29T08:48:02Z</time>
      </trkpt>
      <trkpt lat="45.98914" lon="6.47308">
        <ele>1556</ele>
        <time>2018-01-29T08:48:11Z</time>
      </trkpt>
      <trkpt lat="45.98919" lon="6.47319">
        <ele>1557</ele>
        <time>2018-01-29T08:48:24Z</time>
      </trkpt>
      <trkpt lat="45.98934" lon="6.47337">
        <ele>1561</ele>
        <time>2018-01-29T08:48:46Z</time>
      </trkpt>
      <trkpt lat="45.98939" lon="6.47352">
        <ele>1564</ele>
        <time>2018-01-29T08:49:07Z</time>
      </trkpt>
      <trkpt lat="45.98941" lon="6.47365">
        <ele>1567</ele>
        <time>2018-01-29T08:49:21Z</time>
      </trkpt>
      <trkpt lat="45.98954" lon="6.47368">
        <ele>1568</ele>
        <time>2018-01-29T08:49:39Z</time>
      </trkpt>
      <trkpt lat="45.98959" lon="6.4737">
        <ele>1569</ele>
        <time>2018-01-29T08:49:47Z</time>
      </trkpt>
      <trkpt lat="45.98965" lon="6.47366">
        <ele>1570</ele>
        <time>2018-01-29T08:49:52Z</time>
      </trkpt>
      <trkpt lat="45.98971" lon="6.47372">
        <ele>1572</ele>
        <time>2018-01-29T08:50:06Z</time>
      </trkpt>
      <trkpt lat="45.98976" lon="6.47374">
        <ele>1572</ele>
        <time>2018-01-29T08:50:10Z</time>
      </trkpt>
      <trkpt lat="45.98985" lon="6.47371">
        <ele>1574</ele>
        <time>2018-01-29T08:50:18Z</time>
      </trkpt>
      <trkpt lat="45.98995" lon="6.47371">
        <ele>1575</ele>
        <time>2018-01-29T08:50:24Z</time>
      </trkpt>
      <trkpt lat="45.99001" lon="6.47375">
        <ele>1576</ele>
        <time>2018-01-29T08:50:39Z</time>
      </trkpt>
      <trkpt lat="45.9901" lon="6.47377">
        <ele>1578</ele>
        <time>2018-01-29T08:50:58Z</time>
      </trkpt>
      <trkpt lat="45.99015" lon="6.47378">
        <ele>1580</ele>
        <time>2018-01-29T08:51:11Z</time>
      </trkpt>
      <trkpt lat="45.9902" lon="6.47379">
        <ele>1581</ele>
        <time>2018-01-29T08:51:17Z</time>
      </trkpt>
      <trkpt lat="45.9903" lon="6.47388">
        <ele>1585</ele>
        <time>2018-01-29T08:51:57Z</time>
      </trkpt>
      <trkpt lat="45.99037" lon="6.47397">
        <ele>1587</ele>
        <time>2018-01-29T08:52:07Z</time>
      </trkpt>
      <trkpt lat="45.99047" lon="6.47402">
        <ele>1589</ele>
        <time>2018-01-29T08:52:17Z</time>
      </trkpt>
      <trkpt lat="45.99055" lon="6.47411">
        <ele>1591</ele>
        <time>2018-01-29T08:52:27Z</time>
      </trkpt>
      <trkpt lat="45.99057" lon="6.47417">
        <ele>1592</ele>
        <time>2018-01-29T08:52:32Z</time>
      </trkpt>
      <trkpt lat="45.99061" lon="6.47422">
        <ele>1593</ele>
        <time>2018-01-29T08:52:41Z</time>
      </trkpt>
      <trkpt lat="45.99071" lon="6.47431">
        <ele>1595</ele>
        <time>2018-01-29T08:53:04Z</time>
      </trkpt>
      <trkpt lat="45.9909" lon="6.4746">
        <ele>1597</ele>
        <time>2018-01-29T08:53:34Z</time>
      </trkpt>
      <trkpt lat="45.99114" lon="6.4748">
        <ele>1600</ele>
        <time>2018-01-29T08:54:07Z</time>
      </trkpt>
      <trkpt lat="45.99132" lon="6.47491">
        <ele>1601</ele>
        <time>2018-01-29T08:54:29Z</time>
      </trkpt>
      <trkpt lat="45.99148" lon="6.47503">
        <ele>1603</ele>
        <time>2018-01-29T08:54:53Z</time>
      </trkpt>
      <trkpt lat="45.99158" lon="6.47506">
        <ele>1604</ele>
        <time>2018-01-29T08:55:09Z</time>
      </trkpt>
      <trkpt lat="45.99165" lon="6.47513">
        <ele>1605</ele>
        <time>2018-01-29T08:55:25Z</time>
      </trkpt>
      <trkpt lat="45.99179" lon="6.47514">
        <ele>1606</ele>
        <time>2018-01-29T08:55:37Z</time>
      </trkpt>
      <trkpt lat="45.99184" lon="6.47513">
        <ele>1607</ele>
        <time>2018-01-29T08:55:43Z</time>
      </trkpt>
      <trkpt lat="45.99189" lon="6.47513">
        <ele>1605</ele>
        <time>2018-01-29T08:55:56Z</time>
      </trkpt>
      <trkpt lat="45.99197" lon="6.47513">
        <ele>1605</ele>
        <time>2018-01-29T08:56:15Z</time>
      </trkpt>
      <trkpt lat="45.99201" lon="6.47518">
        <ele>1605</ele>
        <time>2018-01-29T08:56:20Z</time>
      </trkpt>
      <trkpt lat="45.99205" lon="6.47522">
        <ele>1605</ele>
        <time>2018-01-29T08:56:23Z</time>
      </trkpt>
      <trkpt lat="45.99212" lon="6.4753">
        <ele>1605</ele>
        <time>2018-01-29T08:56:28Z</time>
      </trkpt>
      <trkpt lat="45.99213" lon="6.47538">
        <ele>1605</ele>
        <time>2018-01-29T08:56:33Z</time>
      </trkpt>
      <trkpt lat="45.99216" lon="6.47542">
        <ele>1605</ele>
        <time>2018-01-29T08:56:36Z</time>
      </trkpt>
      <trkpt lat="45.99214" lon="6.47548">
        <ele>1606</ele>
        <time>2018-01-29T08:57:03Z</time>
      </trkpt>
      <trkpt lat="45.99215" lon="6.47548">
        <ele>1605</ele>
        <time>2018-01-29T09:00:02Z</time>
      </trkpt>
      <trkpt lat="45.99221" lon="6.47548">
        <ele>1606</ele>
        <time>2018-01-29T09:01:47Z</time>
      </trkpt>
      <trkpt lat="45.99224" lon="6.47542">
        <ele>1608</ele>
        <time>2018-01-29T09:02:00Z</time>
      </trkpt>
      <trkpt lat="45.99227" lon="6.47534">
        <ele>1610</ele>
        <time>2018-01-29T09:02:14Z</time>
      </trkpt>
      <trkpt lat="45.99227" lon="6.4752">
        <ele>1613</ele>
        <time>2018-01-29T09:02:32Z</time>
      </trkpt>
      <trkpt lat="45.99229" lon="6.47513">
        <ele>1615</ele>
        <time>2018-01-29T09:02:41Z</time>
      </trkpt>
      <trkpt lat="45.99228" lon="6.47506">
        <ele>1616</ele>
        <time>2018-01-29T09:02:47Z</time>
      </trkpt>
      <trkpt lat="45.99229" lon="6.47497">
        <ele>1618</ele>
        <time>2018-01-29T09:03:10Z</time>
      </trkpt>
      <trkpt lat="45.99232" lon="6.4749">
        <ele>1618</ele>
        <time>2018-01-29T09:03:23Z</time>
      </trkpt>
      <trkpt lat="45.99228" lon="6.47484">
        <ele>1620</ele>
        <time>2018-01-29T09:03:37Z</time>
      </trkpt>
      <trkpt lat="45.99226" lon="6.47463">
        <ele>1623</ele>
        <time>2018-01-29T09:03:54Z</time>
      </trkpt>
      <trkpt lat="45.99222" lon="6.47437">
        <ele>1627</ele>
        <time>2018-01-29T09:04:32Z</time>
      </trkpt>
      <trkpt lat="45.99219" lon="6.47432">
        <ele>1629</ele>
        <time>2018-01-29T09:04:42Z</time>
      </trkpt>
      <trkpt lat="45.99219" lon="6.47425">
        <ele>1632</ele>
        <time>2018-01-29T09:05:01Z</time>
      </trkpt>
      <trkpt lat="45.99218" lon="6.47399">
        <ele>1637</ele>
        <time>2018-01-29T09:05:38Z</time>
      </trkpt>
      <trkpt lat="45.99218" lon="6.47391">
        <ele>1638</ele>
        <time>2018-01-29T09:05:46Z</time>
      </trkpt>
      <trkpt lat="45.99215" lon="6.47386">
        <ele>1639</ele>
        <time>2018-01-29T09:05:55Z</time>
      </trkpt>
      <trkpt lat="45.99213" lon="6.47379">
        <ele>1640</ele>
        <time>2018-01-29T09:06:03Z</time>
      </trkpt>
      <trkpt lat="45.99216" lon="6.47371">
        <ele>1642</ele>
        <time>2018-01-29T09:06:19Z</time>
      </trkpt>
      <trkpt lat="45.99215" lon="6.47363">
        <ele>1643</ele>
        <time>2018-01-29T09:06:25Z</time>
      </trkpt>
      <trkpt lat="45.99216" lon="6.47339">
        <ele>1645</ele>
        <time>2018-01-29T09:06:42Z</time>
      </trkpt>
      <trkpt lat="45.99214" lon="6.47331">
        <ele>1646</ele>
        <time>2018-01-29T09:06:47Z</time>
      </trkpt>
      <trkpt lat="45.99213" lon="6.47325">
        <ele>1646</ele>
        <time>2018-01-29T09:06:54Z</time>
      </trkpt>
      <trkpt lat="45.99219" lon="6.47317">
        <ele>1649</ele>
        <time>2018-01-29T09:07:10Z</time>
      </trkpt>
      <trkpt lat="45.99235" lon="6.47324">
        <ele>1656</ele>
        <time>2018-01-29T09:07:50Z</time>
      </trkpt>
      <trkpt lat="45.99244" lon="6.47327">
        <ele>1660</ele>
        <time>2018-01-29T09:08:17Z</time>
      </trkpt>
      <trkpt lat="45.99258" lon="6.47322">
        <ele>1662</ele>
        <time>2018-01-29T09:08:31Z</time>
      </trkpt>
      <trkpt lat="45.99265" lon="6.47323">
        <ele>1663</ele>
        <time>2018-01-29T09:08:38Z</time>
      </trkpt>
      <trkpt lat="45.99268" lon="6.47327">
        <ele>1664</ele>
        <time>2018-01-29T09:08:42Z</time>
      </trkpt>
      <trkpt lat="45.99276" lon="6.47331">
        <ele>1666</ele>
        <time>2018-01-29T09:09:13Z</time>
      </trkpt>
      <trkpt lat="45.99279" lon="6.47341">
        <ele>1667</ele>
        <time>2018-01-29T09:10:18Z</time>
      </trkpt>
      <trkpt lat="45.99284" lon="6.47343">
        <ele>1667</ele>
        <time>2018-01-29T09:10:36Z</time>
      </trkpt>
      <trkpt lat="45.99289" lon="6.47346">
        <ele>1667</ele>
        <time>2018-01-29T09:10:44Z</time>
      </trkpt>
      <trkpt lat="45.99293" lon="6.47352">
        <ele>1669</ele>
        <time>2018-01-29T09:10:59Z</time>
      </trkpt>
      <trkpt lat="45.993" lon="6.47361">
        <ele>1671</ele>
        <time>2018-01-29T09:11:11Z</time>
      </trkpt>
      <trkpt lat="45.99304" lon="6.47359">
        <ele>1672</ele>
        <time>2018-01-29T09:11:18Z</time>
      </trkpt>
      <trkpt lat="45.9931" lon="6.47367">
        <ele>1674</ele>
        <time>2018-01-29T09:11:40Z</time>
      </trkpt>
      <trkpt lat="45.99315" lon="6.47373">
        <ele>1677</ele>
        <time>2018-01-29T09:12:03Z</time>
      </trkpt>
      <trkpt lat="45.99319" lon="6.47383">
        <ele>1679</ele>
        <time>2018-01-29T09:12:24Z</time>
      </trkpt>
      <trkpt lat="45.99322" lon="6.47391">
        <ele>1680</ele>
        <time>2018-01-29T09:12:37Z</time>
      </trkpt>
      <trkpt lat="45.99326" lon="6.47393">
        <ele>1683</ele>
        <time>2018-01-29T09:12:54Z</time>
      </trkpt>
      <trkpt lat="45.99333" lon="6.47391">
        <ele>1684</ele>
        <time>2018-01-29T09:13:07Z</time>
      </trkpt>
      <trkpt lat="45.99351" lon="6.47402">
        <ele>1689</ele>
        <time>2018-01-29T09:13:46Z</time>
      </trkpt>
      <trkpt lat="45.99361" lon="6.47403">
        <ele>1693</ele>
        <time>2018-01-29T09:14:11Z</time>
      </trkpt>
      <trkpt lat="45.99366" lon="6.47406">
        <ele>1694</ele>
        <time>2018-01-29T09:14:17Z</time>
      </trkpt>
      <trkpt lat="45.99372" lon="6.47402">
        <ele>1695</ele>
        <time>2018-01-29T09:14:30Z</time>
      </trkpt>
      <trkpt lat="45.99375" lon="6.47408">
        <ele>1697</ele>
        <time>2018-01-29T09:14:43Z</time>
      </trkpt>
      <trkpt lat="45.9938" lon="6.47403">
        <ele>1697</ele>
        <time>2018-01-29T09:14:50Z</time>
      </trkpt>
      <trkpt lat="45.99393" lon="6.47412">
        <ele>1700</ele>
        <time>2018-01-29T09:15:11Z</time>
      </trkpt>
      <trkpt lat="45.99404" lon="6.47421">
        <ele>1703</ele>
        <time>2018-01-29T09:15:39Z</time>
      </trkpt>
      <trkpt lat="45.99416" lon="6.47422">
        <ele>1707</ele>
        <time>2018-01-29T09:15:59Z</time>
      </trkpt>
      <trkpt lat="45.99422" lon="6.47426">
        <ele>1710</ele>
        <time>2018-01-29T09:16:13Z</time>
      </trkpt>
      <trkpt lat="45.99426" lon="6.47431">
        <ele>1711</ele>
        <time>2018-01-29T09:16:20Z</time>
      </trkpt>
      <trkpt lat="45.99431" lon="6.47432">
        <ele>1712</ele>
        <time>2018-01-29T09:16:26Z</time>
      </trkpt>
      <trkpt lat="45.99438" lon="6.47431">
        <ele>1714</ele>
        <time>2018-01-29T09:16:37Z</time>
      </trkpt>
      <trkpt lat="45.99447" lon="6.47435">
        <ele>1716</ele>
        <time>2018-01-29T09:16:52Z</time>
      </trkpt>
      <trkpt lat="45.99456" lon="6.47448">
        <ele>1722</ele>
        <time>2018-01-29T09:17:39Z</time>
      </trkpt>
      <trkpt lat="45.99462" lon="6.47447">
        <ele>1724</ele>
        <time>2018-01-29T09:17:54Z</time>
      </trkpt>
      <trkpt lat="45.99465" lon="6.47453">
        <ele>1725</ele>
        <time>2018-01-29T09:17:59Z</time>
      </trkpt>
      <trkpt lat="45.99472" lon="6.47457">
        <ele>1728</ele>
        <time>2018-01-29T09:18:12Z</time>
      </trkpt>
      <trkpt lat="45.99482" lon="6.4747">
        <ele>1730</ele>
        <time>2018-01-29T09:18:50Z</time>
      </trkpt>
      <trkpt lat="45.99495" lon="6.47479">
        <ele>1735</ele>
        <time>2018-01-29T09:19:14Z</time>
      </trkpt>
      <trkpt lat="45.99498" lon="6.47486">
        <ele>1736</ele>
        <time>2018-01-29T09:19:20Z</time>
      </trkpt>
      <trkpt lat="45.99507" lon="6.47495">
        <ele>1738</ele>
        <time>2018-01-29T09:19:41Z</time>
      </trkpt>
      <trkpt lat="45.99513" lon="6.47501">
        <ele>1739</ele>
        <time>2018-01-29T09:19:49Z</time>
      </trkpt>
      <trkpt lat="45.99509" lon="6.47506">
        <ele>1739</ele>
        <time>2018-01-29T09:19:51Z</time>
      </trkpt>
      <trkpt lat="45.99519" lon="6.47509">
        <ele>1740</ele>
        <time>2018-01-29T09:20:07Z</time>
      </trkpt>
      <trkpt lat="45.9953" lon="6.47512">
        <ele>1740</ele>
        <time>2018-01-29T09:20:12Z</time>
      </trkpt>
      <trkpt lat="45.99539" lon="6.47516">
        <ele>1739</ele>
        <time>2018-01-29T09:20:15Z</time>
      </trkpt>
      <trkpt lat="45.99546" lon="6.47525">
        <ele>1738</ele>
        <time>2018-01-29T09:20:18Z</time>
      </trkpt>
      <trkpt lat="45.99558" lon="6.47529">
        <ele>1737</ele>
        <time>2018-01-29T09:20:21Z</time>
      </trkpt>
      <trkpt lat="45.99569" lon="6.47528">
        <ele>1736</ele>
        <time>2018-01-29T09:20:27Z</time>
      </trkpt>
      <trkpt lat="45.99578" lon="6.47523">
        <ele>1735</ele>
        <time>2018-01-29T09:20:37Z</time>
      </trkpt>
      <trkpt lat="45.99583" lon="6.47523">
        <ele>1736</ele>
        <time>2018-01-29T09:20:42Z</time>
      </trkpt>
      <trkpt lat="45.99587" lon="6.4752">
        <ele>1737</ele>
        <time>2018-01-29T09:20:48Z</time>
      </trkpt>
      <trkpt lat="45.99592" lon="6.47519">
        <ele>1738</ele>
        <time>2018-01-29T09:20:55Z</time>
      </trkpt>
      <trkpt lat="45.99594" lon="6.47509">
        <ele>1739</ele>
        <time>2018-01-29T09:21:05Z</time>
      </trkpt>
      <trkpt lat="45.99597" lon="6.47504">
        <ele>1739</ele>
        <time>2018-01-29T09:21:09Z</time>
      </trkpt>
      <trkpt lat="45.99616" lon="6.47499">
        <ele>1737</ele>
        <time>2018-01-29T09:21:16Z</time>
      </trkpt>
      <trkpt lat="45.9962" lon="6.475">
        <ele>1737</ele>
        <time>2018-01-29T09:21:18Z</time>
      </trkpt>
      <trkpt lat="45.99622" lon="6.47508">
        <ele>1736</ele>
        <time>2018-01-29T09:21:25Z</time>
      </trkpt>
      <trkpt lat="45.99621" lon="6.47507">
        <ele>1740</ele>
        <time>2018-01-29T09:22:36Z</time>
      </trkpt>
      <trkpt lat="45.99624" lon="6.4752">
        <ele>1741</ele>
        <time>2018-01-29T09:24:05Z</time>
      </trkpt>
      <trkpt lat="45.99635" lon="6.47544">
        <ele>1741</ele>
        <time>2018-01-29T09:24:31Z</time>
      </trkpt>
      <trkpt lat="45.9964" lon="6.47563">
        <ele>1742</ele>
        <time>2018-01-29T09:24:52Z</time>
      </trkpt>
      <trkpt lat="45.99656" lon="6.47597">
        <ele>1745</ele>
        <time>2018-01-29T09:25:31Z</time>
      </trkpt>
      <trkpt lat="45.99661" lon="6.476">
        <ele>1746</ele>
        <time>2018-01-29T09:25:39Z</time>
      </trkpt>
      <trkpt lat="45.99665" lon="6.476">
        <ele>1746</ele>
        <time>2018-01-29T09:25:46Z</time>
      </trkpt>
      <trkpt lat="45.9967" lon="6.476">
        <ele>1746</ele>
        <time>2018-01-29T09:25:53Z</time>
      </trkpt>
      <trkpt lat="45.99678" lon="6.47608">
        <ele>1747</ele>
        <time>2018-01-29T09:26:06Z</time>
      </trkpt>
      <trkpt lat="45.99681" lon="6.47614">
        <ele>1748</ele>
        <time>2018-01-29T09:26:13Z</time>
      </trkpt>
      <trkpt lat="45.99693" lon="6.47623">
        <ele>1749</ele>
        <time>2018-01-29T09:26:31Z</time>
      </trkpt>
      <trkpt lat="45.99698" lon="6.47624">
        <ele>1749</ele>
        <time>2018-01-29T09:26:37Z</time>
      </trkpt>
      <trkpt lat="45.99712" lon="6.47627">
        <ele>1750</ele>
        <time>2018-01-29T09:26:56Z</time>
      </trkpt>
      <trkpt lat="45.99722" lon="6.47625">
        <ele>1750</ele>
        <time>2018-01-29T09:27:12Z</time>
      </trkpt>
      <trkpt lat="45.99732" lon="6.47628">
        <ele>1750</ele>
        <time>2018-01-29T09:27:28Z</time>
      </trkpt>
      <trkpt lat="45.99736" lon="6.47627">
        <ele>1750</ele>
        <time>2018-01-29T09:27:33Z</time>
      </trkpt>
      <trkpt lat="45.99754" lon="6.47633">
        <ele>1754</ele>
        <time>2018-01-29T09:28:04Z</time>
      </trkpt>
      <trkpt lat="45.99763" lon="6.47634">
        <ele>1756</ele>
        <time>2018-01-29T09:28:24Z</time>
      </trkpt>
      <trkpt lat="45.99787" lon="6.47626">
        <ele>1761</ele>
        <time>2018-01-29T09:29:01Z</time>
      </trkpt>
      <trkpt lat="45.99811" lon="6.47626">
        <ele>1765</ele>
        <time>2018-01-29T09:29:39Z</time>
      </trkpt>
      <trkpt lat="45.99821" lon="6.47628">
        <ele>1767</ele>
        <time>2018-01-29T09:30:01Z</time>
      </trkpt>
      <trkpt lat="45.99826" lon="6.47631">
        <ele>1768</ele>
        <time>2018-01-29T09:30:09Z</time>
      </trkpt>
      <trkpt lat="45.9983" lon="6.47634">
        <ele>1769</ele>
        <time>2018-01-29T09:30:21Z</time>
      </trkpt>
      <trkpt lat="45.99834" lon="6.47639">
        <ele>1770</ele>
        <time>2018-01-29T09:30:30Z</time>
      </trkpt>
      <trkpt lat="45.99843" lon="6.47654">
        <ele>1775</ele>
        <time>2018-01-29T09:31:04Z</time>
      </trkpt>
      <trkpt lat="45.99847" lon="6.47661">
        <ele>1777</ele>
        <time>2018-01-29T09:31:22Z</time>
      </trkpt>
      <trkpt lat="45.9986" lon="6.47674">
        <ele>1782</ele>
        <time>2018-01-29T09:31:59Z</time>
      </trkpt>
      <trkpt lat="45.99864" lon="6.47671">
        <ele>1783</ele>
        <time>2018-01-29T09:32:09Z</time>
      </trkpt>
      <trkpt lat="45.99867" lon="6.47652">
        <ele>1789</ele>
        <time>2018-01-29T09:32:56Z</time>
      </trkpt>
      <trkpt lat="45.99868" lon="6.47646">
        <ele>1790</ele>
        <time>2018-01-29T09:33:07Z</time>
      </trkpt>
      <trkpt lat="45.99868" lon="6.47622">
        <ele>1796</ele>
        <time>2018-01-29T09:33:44Z</time>
      </trkpt>
      <trkpt lat="45.99868" lon="6.47615">
        <ele>1798</ele>
        <time>2018-01-29T09:33:56Z</time>
      </trkpt>
      <trkpt lat="45.99866" lon="6.47597">
        <ele>1802</ele>
        <time>2018-01-29T09:34:26Z</time>
      </trkpt>
      <trkpt lat="45.99861" lon="6.47581">
        <ele>1808</ele>
        <time>2018-01-29T09:35:02Z</time>
      </trkpt>
      <trkpt lat="45.99867" lon="6.47581">
        <ele>1810</ele>
        <time>2018-01-29T09:35:33Z</time>
      </trkpt>
      <trkpt lat="45.99868" lon="6.47567">
        <ele>1814</ele>
        <time>2018-01-29T09:36:01Z</time>
      </trkpt>
      <trkpt lat="45.99866" lon="6.47561">
        <ele>1815</ele>
        <time>2018-01-29T09:36:08Z</time>
      </trkpt>
      <trkpt lat="45.99863" lon="6.47556">
        <ele>1817</ele>
        <time>2018-01-29T09:36:21Z</time>
      </trkpt>
      <trkpt lat="45.99856" lon="6.47547">
        <ele>1819</ele>
        <time>2018-01-29T09:36:37Z</time>
      </trkpt>
      <trkpt lat="45.99852" lon="6.47544">
        <ele>1820</ele>
        <time>2018-01-29T09:36:49Z</time>
      </trkpt>
      <trkpt lat="45.9985" lon="6.47534">
        <ele>1821</ele>
        <time>2018-01-29T09:40:39Z</time>
      </trkpt>
      <trkpt lat="45.99854" lon="6.47522">
        <ele>1824</ele>
        <time>2018-01-29T09:40:55Z</time>
      </trkpt>
      <trkpt lat="45.99857" lon="6.47517">
        <ele>1825</ele>
        <time>2018-01-29T09:41:04Z</time>
      </trkpt>
      <trkpt lat="45.99866" lon="6.47511">
        <ele>1827</ele>
        <time>2018-01-29T09:41:22Z</time>
      </trkpt>
      <trkpt lat="45.99885" lon="6.47507">
        <ele>1830</ele>
        <time>2018-01-29T09:41:57Z</time>
      </trkpt>
      <trkpt lat="45.9989" lon="6.47506">
        <ele>1831</ele>
        <time>2018-01-29T09:42:06Z</time>
      </trkpt>
      <trkpt lat="45.99907" lon="6.4751">
        <ele>1836</ele>
        <time>2018-01-29T09:42:46Z</time>
      </trkpt>
      <trkpt lat="45.99911" lon="6.47514">
        <ele>1838</ele>
        <time>2018-01-29T09:43:05Z</time>
      </trkpt>
      <trkpt lat="45.99925" lon="6.47516">
        <ele>1841</ele>
        <time>2018-01-29T09:43:28Z</time>
      </trkpt>
      <trkpt lat="45.99933" lon="6.47536">
        <ele>1845</ele>
        <time>2018-01-29T09:44:08Z</time>
      </trkpt>
      <trkpt lat="45.99934" lon="6.47544">
        <ele>1846</ele>
        <time>2018-01-29T09:44:21Z</time>
      </trkpt>
      <trkpt lat="45.99938" lon="6.47536">
        <ele>1846</ele>
        <time>2018-01-29T09:44:36Z</time>
      </trkpt>
      <trkpt lat="45.99945" lon="6.4752">
        <ele>1849</ele>
        <time>2018-01-29T09:45:06Z</time>
      </trkpt>
      <trkpt lat="45.99948" lon="6.47514">
        <ele>1851</ele>
        <time>2018-01-29T09:45:18Z</time>
      </trkpt>
      <trkpt lat="45.99947" lon="6.47505">
        <ele>1853</ele>
        <time>2018-01-29T09:45:36Z</time>
      </trkpt>
      <trkpt lat="45.99945" lon="6.47492">
        <ele>1856</ele>
        <time>2018-01-29T09:45:58Z</time>
      </trkpt>
      <trkpt lat="45.99949" lon="6.47489">
        <ele>1859</ele>
        <time>2018-01-29T09:46:43Z</time>
      </trkpt>
      <trkpt lat="45.99952" lon="6.47494">
        <ele>1859</ele>
        <time>2018-01-29T09:46:52Z</time>
      </trkpt>
      <trkpt lat="45.99955" lon="6.47499">
        <ele>1862</ele>
        <time>2018-01-29T09:47:10Z</time>
      </trkpt>
      <trkpt lat="45.99963" lon="6.47506">
        <ele>1865</ele>
        <time>2018-01-29T09:47:27Z</time>
      </trkpt>
      <trkpt lat="45.99968" lon="6.47518">
        <ele>1867</ele>
        <time>2018-01-29T09:47:42Z</time>
      </trkpt>
      <trkpt lat="45.99973" lon="6.47529">
        <ele>1869</ele>
        <time>2018-01-29T09:48:08Z</time>
      </trkpt>
      <trkpt lat="45.99976" lon="6.47532">
        <ele>1870</ele>
        <time>2018-01-29T09:48:52Z</time>
      </trkpt>
      <trkpt lat="45.99979" lon="6.47526">
        <ele>1871</ele>
        <time>2018-01-29T09:49:02Z</time>
      </trkpt>
      <trkpt lat="45.99987" lon="6.47506">
        <ele>1878</ele>
        <time>2018-01-29T09:49:36Z</time>
      </trkpt>
      <trkpt lat="45.99988" lon="6.47499">
        <ele>1879</ele>
        <time>2018-01-29T09:49:46Z</time>
      </trkpt>
      <trkpt lat="45.99992" lon="6.47505">
        <ele>1882</ele>
        <time>2018-01-29T09:50:24Z</time>
      </trkpt>
      <trkpt lat="45.99995" lon="6.47512">
        <ele>1884</ele>
        <time>2018-01-29T09:50:36Z</time>
      </trkpt>
      <trkpt lat="45.99994" lon="6.47519">
        <ele>1885</ele>
        <time>2018-01-29T09:50:51Z</time>
      </trkpt>
      <trkpt lat="45.99999" lon="6.47538">
        <ele>1889</ele>
        <time>2018-01-29T09:51:22Z</time>
      </trkpt>
      <trkpt lat="45.99999" lon="6.47549">
        <ele>1890</ele>
        <time>2018-01-29T09:51:35Z</time>
      </trkpt>
      <trkpt lat="46" lon="6.4756">
        <ele>1892</ele>
        <time>2018-01-29T09:51:54Z</time>
      </trkpt>
      <trkpt lat="46.00007" lon="6.47574">
        <ele>1896</ele>
        <time>2018-01-29T09:52:12Z</time>
      </trkpt>
      <trkpt lat="46.00011" lon="6.47579">
        <ele>1897</ele>
        <time>2018-01-29T09:52:28Z</time>
      </trkpt>
      <trkpt lat="46.00016" lon="6.47578">
        <ele>1899</ele>
        <time>2018-01-29T09:52:36Z</time>
      </trkpt>
      <trkpt lat="46.0002" lon="6.47576">
        <ele>1900</ele>
        <time>2018-01-29T09:52:44Z</time>
      </trkpt>
      <trkpt lat="46.00025" lon="6.47576">
        <ele>1902</ele>
        <time>2018-01-29T09:53:02Z</time>
      </trkpt>
      <trkpt lat="46.0004" lon="6.47557">
        <ele>1907</ele>
        <time>2018-01-29T09:53:42Z</time>
      </trkpt>
      <trkpt lat="46.00055" lon="6.4754">
        <ele>1914</ele>
        <time>2018-01-29T09:54:27Z</time>
      </trkpt>
      <trkpt lat="46.00057" lon="6.47534">
        <ele>1916</ele>
        <time>2018-01-29T09:54:35Z</time>
      </trkpt>
      <trkpt lat="46.00062" lon="6.47534">
        <ele>1918</ele>
        <time>2018-01-29T09:55:03Z</time>
      </trkpt>
      <trkpt lat="46.00068" lon="6.47544">
        <ele>1921</ele>
        <time>2018-01-29T09:55:22Z</time>
      </trkpt>
      <trkpt lat="46.0007" lon="6.47553">
        <ele>1924</ele>
        <time>2018-01-29T09:55:44Z</time>
      </trkpt>
      <trkpt lat="46.00072" lon="6.47559">
        <ele>1924</ele>
        <time>2018-01-29T09:55:49Z</time>
      </trkpt>
      <trkpt lat="46.00079" lon="6.47557">
        <ele>1925</ele>
        <time>2018-01-29T09:56:04Z</time>
      </trkpt>
      <trkpt lat="46.0009" lon="6.47528">
        <ele>1930</ele>
        <time>2018-01-29T09:56:48Z</time>
      </trkpt>
      <trkpt lat="46.00093" lon="6.47524">
        <ele>1932</ele>
        <time>2018-01-29T09:57:07Z</time>
      </trkpt>
      <trkpt lat="46.00111" lon="6.47523">
        <ele>1938</ele>
        <time>2018-01-29T09:57:39Z</time>
      </trkpt>
      <trkpt lat="46.00121" lon="6.47523">
        <ele>1942</ele>
        <time>2018-01-29T09:57:52Z</time>
      </trkpt>
      <trkpt lat="46.00139" lon="6.47513">
        <ele>1949</ele>
        <time>2018-01-29T09:58:22Z</time>
      </trkpt>
      <trkpt lat="46.00143" lon="6.47509">
        <ele>1950</ele>
        <time>2018-01-29T09:58:30Z</time>
      </trkpt>
      <trkpt lat="46.00151" lon="6.47501">
        <ele>1954</ele>
        <time>2018-01-29T09:58:52Z</time>
      </trkpt>
      <trkpt lat="46.00155" lon="6.47497">
        <ele>1956</ele>
        <time>2018-01-29T09:59:00Z</time>
      </trkpt>
      <trkpt lat="46.00161" lon="6.47494">
        <ele>1958</ele>
        <time>2018-01-29T09:59:19Z</time>
      </trkpt>
      <trkpt lat="46.00173" lon="6.47499">
        <ele>1963</ele>
        <time>2018-01-29T09:59:48Z</time>
      </trkpt>
      <trkpt lat="46.0019" lon="6.47512">
        <ele>1968</ele>
        <time>2018-01-29T10:00:27Z</time>
      </trkpt>
      <trkpt lat="46.00195" lon="6.47515">
        <ele>1970</ele>
        <time>2018-01-29T10:00:45Z</time>
      </trkpt>
      <trkpt lat="46.00199" lon="6.47521">
        <ele>1972</ele>
        <time>2018-01-29T10:01:01Z</time>
      </trkpt>
      <trkpt lat="46.00204" lon="6.47532">
        <ele>1975</ele>
        <time>2018-01-29T10:01:19Z</time>
      </trkpt>
      <trkpt lat="46.00212" lon="6.4753">
        <ele>1978</ele>
        <time>2018-01-29T10:01:56Z</time>
      </trkpt>
      <trkpt lat="46.00216" lon="6.47528">
        <ele>1980</ele>
        <time>2018-01-29T10:02:06Z</time>
      </trkpt>
      <trkpt lat="46.00224" lon="6.47502">
        <ele>1986</ele>
        <time>2018-01-29T10:02:46Z</time>
      </trkpt>
      <trkpt lat="46.0023" lon="6.4749">
        <ele>1987</ele>
        <time>2018-01-29T10:02:58Z</time>
      </trkpt>
      <trkpt lat="46.00228" lon="6.47469">
        <ele>1992</ele>
        <time>2018-01-29T10:03:41Z</time>
      </trkpt>
      <trkpt lat="46.00229" lon="6.47462">
        <ele>1993</ele>
        <time>2018-01-29T10:03:49Z</time>
      </trkpt>
      <trkpt lat="46.00226" lon="6.47441">
        <ele>1996</ele>
        <time>2018-01-29T10:04:08Z</time>
      </trkpt>
      <trkpt lat="46.00227" lon="6.47427">
        <ele>1998</ele>
        <time>2018-01-29T10:04:23Z</time>
      </trkpt>
      <trkpt lat="46.00237" lon="6.47427">
        <ele>2001</ele>
        <time>2018-01-29T10:04:46Z</time>
      </trkpt>
      <trkpt lat="46.00242" lon="6.47424">
        <ele>2002</ele>
        <time>2018-01-29T10:04:58Z</time>
      </trkpt>
      <trkpt lat="46.00245" lon="6.47411">
        <ele>2004</ele>
        <time>2018-01-29T10:05:13Z</time>
      </trkpt>
      <trkpt lat="46.00248" lon="6.474">
        <ele>2008</ele>
        <time>2018-01-29T10:05:56Z</time>
      </trkpt>
      <trkpt lat="46.0025" lon="6.47386">
        <ele>2011</ele>
        <time>2018-01-29T10:06:10Z</time>
      </trkpt>
      <trkpt lat="46.00251" lon="6.47377">
        <ele>2014</ele>
        <time>2018-01-29T10:06:32Z</time>
      </trkpt>
      <trkpt lat="46.00252" lon="6.4737">
        <ele>2014</ele>
        <time>2018-01-29T10:06:44Z</time>
      </trkpt>
      <trkpt lat="46.00255" lon="6.47365">
        <ele>2016</ele>
        <time>2018-01-29T10:06:50Z</time>
      </trkpt>
      <trkpt lat="46.00263" lon="6.47361">
        <ele>2018</ele>
        <time>2018-01-29T10:07:05Z</time>
      </trkpt>
      <trkpt lat="46.00268" lon="6.47359">
        <ele>2018</ele>
        <time>2018-01-29T10:11:19Z</time>
      </trkpt>
      <trkpt lat="46.00265" lon="6.47353">
        <ele>2017</ele>
        <time>2018-01-29T10:16:25Z</time>
      </trkpt>
      <trkpt lat="46.00274" lon="6.47338">
        <ele>2021</ele>
        <time>2018-01-29T10:16:59Z</time>
      </trkpt>
      <trkpt lat="46.00278" lon="6.47331">
        <ele>2022</ele>
        <time>2018-01-29T10:17:12Z</time>
      </trkpt>
      <trkpt lat="46.00292" lon="6.47317">
        <ele>2025</ele>
        <time>2018-01-29T10:17:32Z</time>
      </trkpt>
      <trkpt lat="46.00301" lon="6.47312">
        <ele>2026</ele>
        <time>2018-01-29T10:17:43Z</time>
      </trkpt>
      <trkpt lat="46.00307" lon="6.47309">
        <ele>2028</ele>
        <time>2018-01-29T10:18:01Z</time>
      </trkpt>
      <trkpt lat="46.00313" lon="6.47305">
        <ele>2031</ele>
        <time>2018-01-29T10:18:27Z</time>
      </trkpt>
      <trkpt lat="46.00318" lon="6.47307">
        <ele>2033</ele>
        <time>2018-01-29T10:18:35Z</time>
      </trkpt>
      <trkpt lat="46.00327" lon="6.47303">
        <ele>2038</ele>
        <time>2018-01-29T10:18:54Z</time>
      </trkpt>
      <trkpt lat="46.00348" lon="6.47285">
        <ele>2042</ele>
        <time>2018-01-29T10:19:24Z</time>
      </trkpt>
      <trkpt lat="46.0036" lon="6.47282">
        <ele>2047</ele>
        <time>2018-01-29T10:19:50Z</time>
      </trkpt>
      <trkpt lat="46.00369" lon="6.47276">
        <ele>2051</ele>
        <time>2018-01-29T10:20:14Z</time>
      </trkpt>
      <trkpt lat="46.00388" lon="6.4727">
        <ele>2058</ele>
        <time>2018-01-29T10:20:59Z</time>
      </trkpt>
      <trkpt lat="46.00392" lon="6.47267">
        <ele>2059</ele>
        <time>2018-01-29T10:21:11Z</time>
      </trkpt>
      <trkpt lat="46.00395" lon="6.47262">
        <ele>2061</ele>
        <time>2018-01-29T10:21:16Z</time>
      </trkpt>
      <trkpt lat="46.004" lon="6.47258">
        <ele>2063</ele>
        <time>2018-01-29T10:21:35Z</time>
      </trkpt>
      <trkpt lat="46.00403" lon="6.47254">
        <ele>2065</ele>
        <time>2018-01-29T10:21:44Z</time>
      </trkpt>
      <trkpt lat="46.00412" lon="6.47248">
        <ele>2069</ele>
        <time>2018-01-29T10:22:01Z</time>
      </trkpt>
      <trkpt lat="46.00422" lon="6.47233">
        <ele>2075</ele>
        <time>2018-01-29T10:22:28Z</time>
      </trkpt>
      <trkpt lat="46.00422" lon="6.47227">
        <ele>2079</ele>
        <time>2018-01-29T10:22:41Z</time>
      </trkpt>
      <trkpt lat="46.00425" lon="6.47218">
        <ele>2081</ele>
        <time>2018-01-29T10:22:54Z</time>
      </trkpt>
      <trkpt lat="46.00426" lon="6.47212">
        <ele>2083</ele>
        <time>2018-01-29T10:23:01Z</time>
      </trkpt>
      <trkpt lat="46.00429" lon="6.47203">
        <ele>2087</ele>
        <time>2018-01-29T10:23:19Z</time>
      </trkpt>
      <trkpt lat="46.0044" lon="6.47227">
        <ele>2095</ele>
        <time>2018-01-29T10:23:58Z</time>
      </trkpt>
      <trkpt lat="46.00444" lon="6.47234">
        <ele>2097</ele>
        <time>2018-01-29T10:24:13Z</time>
      </trkpt>
      <trkpt lat="46.00449" lon="6.47248">
        <ele>2101</ele>
        <time>2018-01-29T10:24:36Z</time>
      </trkpt>
      <trkpt lat="46.00458" lon="6.47233">
        <ele>2107</ele>
        <time>2018-01-29T10:25:10Z</time>
      </trkpt>
      <trkpt lat="46.00463" lon="6.47217">
        <ele>2112</ele>
        <time>2018-01-29T10:25:42Z</time>
      </trkpt>
      <trkpt lat="46.00467" lon="6.47215">
        <ele>2117</ele>
        <time>2018-01-29T10:26:13Z</time>
      </trkpt>
      <trkpt lat="46.0047" lon="6.47222">
        <ele>2118</ele>
        <time>2018-01-29T10:26:29Z</time>
      </trkpt>
      <trkpt lat="46.00472" lon="6.47228">
        <ele>2123</ele>
        <time>2018-01-29T10:26:41Z</time>
      </trkpt>
      <trkpt lat="46.00481" lon="6.4725">
        <ele>2130</ele>
        <time>2018-01-29T10:27:29Z</time>
      </trkpt>
      <trkpt lat="46.00484" lon="6.47252">
        <ele>2134</ele>
        <time>2018-01-29T10:28:06Z</time>
      </trkpt>
      <trkpt lat="46.00486" lon="6.47239">
        <ele>2137</ele>
        <time>2018-01-29T10:28:26Z</time>
      </trkpt>
      <trkpt lat="46.0049" lon="6.4723">
        <ele>2140</ele>
        <time>2018-01-29T10:28:52Z</time>
      </trkpt>
      <trkpt lat="46.00491" lon="6.47223">
        <ele>2140</ele>
        <time>2018-01-29T10:28:58Z</time>
      </trkpt>
      <trkpt lat="46.00498" lon="6.47211">
        <ele>2145</ele>
        <time>2018-01-29T10:29:33Z</time>
      </trkpt>
      <trkpt lat="46.00506" lon="6.47226">
        <ele>2150</ele>
        <time>2018-01-29T10:30:09Z</time>
      </trkpt>
      <trkpt lat="46.0051" lon="6.47238">
        <ele>2153</ele>
        <time>2018-01-29T10:30:31Z</time>
      </trkpt>
      <trkpt lat="46.00513" lon="6.47248">
        <ele>2156</ele>
        <time>2018-01-29T10:30:57Z</time>
      </trkpt>
      <trkpt lat="46.00519" lon="6.47269">
        <ele>2160</ele>
        <time>2018-01-29T10:31:28Z</time>
      </trkpt>
      <trkpt lat="46.00521" lon="6.47263">
        <ele>2161</ele>
        <time>2018-01-29T10:31:42Z</time>
      </trkpt>
      <trkpt lat="46.00521" lon="6.47252">
        <ele>2163</ele>
        <time>2018-01-29T10:32:11Z</time>
      </trkpt>
      <trkpt lat="46.00526" lon="6.47247">
        <ele>2165</ele>
        <time>2018-01-29T10:32:21Z</time>
      </trkpt>
      <trkpt lat="46.00528" lon="6.47239">
        <ele>2166</ele>
        <time>2018-01-29T10:32:36Z</time>
      </trkpt>
      <trkpt lat="46.00534" lon="6.47228">
        <ele>2167</ele>
        <time>2018-01-29T10:32:42Z</time>
      </trkpt>
      <trkpt lat="46.00541" lon="6.47221">
        <ele>2168</ele>
        <time>2018-01-29T10:32:47Z</time>
      </trkpt>
      <trkpt lat="46.00546" lon="6.47216">
        <ele>2169</ele>
        <time>2018-01-29T10:33:02Z</time>
      </trkpt>
      <trkpt lat="46.00548" lon="6.4719">
        <ele>2175</ele>
        <time>2018-01-29T10:33:40Z</time>
      </trkpt>
      <trkpt lat="46.0055" lon="6.47176">
        <ele>2178</ele>
        <time>2018-01-29T10:34:13Z</time>
      </trkpt>
      <trkpt lat="46.00552" lon="6.47157">
        <ele>2184</ele>
        <time>2018-01-29T10:34:49Z</time>
      </trkpt>
      <trkpt lat="46.0055" lon="6.47145">
        <ele>2188</ele>
        <time>2018-01-29T10:35:26Z</time>
      </trkpt>
      <trkpt lat="46.00552" lon="6.47138">
        <ele>2190</ele>
        <time>2018-01-29T10:35:36Z</time>
      </trkpt>
      <trkpt lat="46.00547" lon="6.47135">
        <ele>2190</ele>
        <time>2018-01-29T10:35:45Z</time>
      </trkpt>
      <trkpt lat="46.00548" lon="6.47148">
        <ele>2191</ele>
        <time>2018-01-29T10:36:00Z</time>
      </trkpt>
      <trkpt lat="46.00552" lon="6.47152">
        <ele>2192</ele>
        <time>2018-01-29T10:36:21Z</time>
      </trkpt>
      <trkpt lat="46.00554" lon="6.47158">
        <ele>2194</ele>
        <time>2018-01-29T10:36:27Z</time>
      </trkpt>
      <trkpt lat="46.00559" lon="6.47146">
        <ele>2198</ele>
        <time>2018-01-29T10:37:05Z</time>
      </trkpt>
      <trkpt lat="46.0056" lon="6.47139">
        <ele>2199</ele>
        <time>2018-01-29T10:37:09Z</time>
      </trkpt>
      <trkpt lat="46.00558" lon="6.47108">
        <ele>2203</ele>
        <time>2018-01-29T10:37:41Z</time>
      </trkpt>
      <trkpt lat="46.00559" lon="6.471">
        <ele>2205</ele>
        <time>2018-01-29T10:37:49Z</time>
      </trkpt>
      <trkpt lat="46.00565" lon="6.47097">
        <ele>2206</ele>
        <time>2018-01-29T10:38:01Z</time>
      </trkpt>
      <trkpt lat="46.00565" lon="6.47086">
        <ele>2209</ele>
        <time>2018-01-29T10:38:21Z</time>
      </trkpt>
      <trkpt lat="46.00569" lon="6.47081">
        <ele>2211</ele>
        <time>2018-01-29T10:38:30Z</time>
      </trkpt>
      <trkpt lat="46.00571" lon="6.47064">
        <ele>2215</ele>
        <time>2018-01-29T10:39:03Z</time>
      </trkpt>
      <trkpt lat="46.00573" lon="6.47056">
        <ele>2217</ele>
        <time>2018-01-29T10:39:22Z</time>
      </trkpt>
      <trkpt lat="46.00571" lon="6.4705">
        <ele>2218</ele>
        <time>2018-01-29T10:39:26Z</time>
      </trkpt>
      <trkpt lat="46.00573" lon="6.47015">
        <ele>2222</ele>
        <time>2018-01-29T10:39:59Z</time>
      </trkpt>
      <trkpt lat="46.0057" lon="6.47008">
        <ele>2223</ele>
        <time>2018-01-29T10:40:11Z</time>
      </trkpt>
      <trkpt lat="46.00568" lon="6.47002">
        <ele>2225</ele>
        <time>2018-01-29T10:40:19Z</time>
      </trkpt>
      <trkpt lat="46.00565" lon="6.46996">
        <ele>2226</ele>
        <time>2018-01-29T10:40:27Z</time>
      </trkpt>
      <trkpt lat="46.00561" lon="6.46989">
        <ele>2229</ele>
        <time>2018-01-29T10:40:49Z</time>
      </trkpt>
      <trkpt lat="46.0057" lon="6.46985">
        <ele>2231</ele>
        <time>2018-01-29T10:41:14Z</time>
      </trkpt>
      <trkpt lat="46.00576" lon="6.46981">
        <ele>2234</ele>
        <time>2018-01-29T10:41:30Z</time>
      </trkpt>
      <trkpt lat="46.0058" lon="6.46972">
        <ele>2237</ele>
        <time>2018-01-29T10:42:01Z</time>
      </trkpt>
      <trkpt lat="46.0058" lon="6.46965">
        <ele>2240</ele>
        <time>2018-01-29T10:42:19Z</time>
      </trkpt>
      <trkpt lat="46.00579" lon="6.46958">
        <ele>2240</ele>
        <time>2018-01-29T10:42:26Z</time>
      </trkpt>
      <trkpt lat="46.00579" lon="6.46951">
        <ele>2243</ele>
        <time>2018-01-29T10:42:44Z</time>
      </trkpt>
      <trkpt lat="46.00565" lon="6.46924">
        <ele>2247</ele>
        <time>2018-01-29T10:43:20Z</time>
      </trkpt>
      <trkpt lat="46.00557" lon="6.46898">
        <ele>2248</ele>
        <time>2018-01-29T10:43:47Z</time>
      </trkpt>
      <trkpt lat="46.00551" lon="6.46886">
        <ele>2251</ele>
        <time>2018-01-29T10:44:00Z</time>
      </trkpt>
      <trkpt lat="46.00543" lon="6.46878">
        <ele>2252</ele>
        <time>2018-01-29T10:44:11Z</time>
      </trkpt>
      <trkpt lat="46.00539" lon="6.46865">
        <ele>2255</ele>
        <time>2018-01-29T10:44:40Z</time>
      </trkpt>
      <trkpt lat="46.00537" lon="6.4686">
        <ele>2255</ele>
        <time>2018-01-29T10:46:04Z</time>
      </trkpt>
      <trkpt lat="46.00535" lon="6.46853">
        <ele>2255</ele>
        <time>2018-01-29T10:46:13Z</time>
      </trkpt>
      <trkpt lat="46.00534" lon="6.46846">
        <ele>2255</ele>
        <time>2018-01-29T10:46:29Z</time>
      </trkpt>
      <trkpt lat="46.00539" lon="6.46864">
        <ele>2255</ele>
        <time>2018-01-29T10:46:53Z</time>
      </trkpt>
      <trkpt lat="46.00542" lon="6.46871">
        <ele>2255</ele>
        <time>2018-01-29T10:46:58Z</time>
      </trkpt>
      <trkpt lat="46.00545" lon="6.46876">
        <ele>2255</ele>
        <time>2018-01-29T10:47:01Z</time>
      </trkpt>
      <trkpt lat="46.00548" lon="6.46882">
        <ele>2255</ele>
        <time>2018-01-29T10:47:05Z</time>
      </trkpt>
      <trkpt lat="46.00573" lon="6.46925">
        <ele>2250</ele>
        <time>2018-01-29T10:47:29Z</time>
      </trkpt>
      <trkpt lat="46.00585" lon="6.46936">
        <ele>2249</ele>
        <time>2018-01-29T10:47:40Z</time>
      </trkpt>
      <trkpt lat="46.00588" lon="6.46941">
        <ele>2249</ele>
        <time>2018-01-29T10:47:49Z</time>
      </trkpt>
      <trkpt lat="46.00596" lon="6.46948">
        <ele>2248</ele>
        <time>2018-01-29T10:48:04Z</time>
      </trkpt>
      <trkpt lat="46.00597" lon="6.46958">
        <ele>2248</ele>
        <time>2018-01-29T10:55:58Z</time>
      </trkpt>
      <trkpt lat="46.00598" lon="6.46959">
        <ele>2257</ele>
        <time>2018-01-29T11:07:27Z</time>
      </trkpt>
      <trkpt lat="46.00598" lon="6.46956">
        <ele>2256</ele>
        <time>2018-01-29T11:18:40Z</time>
      </trkpt>
      <trkpt lat="46.00598" lon="6.46956">
        <ele>2256</ele>
        <time>2018-01-29T11:28:45Z</time>
      </trkpt>
      <trkpt lat="46.00597" lon="6.46956">
        <ele>2256</ele>
        <time>2018-01-29T11:34:16Z</time>
      </trkpt>
      <trkpt lat="46.00591" lon="6.46961">
        <ele>2258</ele>
        <time>2018-01-29T11:40:04Z</time>
      </trkpt>
      <trkpt lat="46.00584" lon="6.46951">
        <ele>2259</ele>
        <time>2018-01-29T11:42:32Z</time>
      </trkpt>
      <trkpt lat="46.00578" lon="6.46952">
        <ele>2257</ele>
        <time>2018-01-29T11:45:18Z</time>
      </trkpt>
      <trkpt lat="46.00571" lon="6.46951">
        <ele>2257</ele>
        <time>2018-01-29T11:45:20Z</time>
      </trkpt>
      <trkpt lat="46.00565" lon="6.46957">
        <ele>2256</ele>
        <time>2018-01-29T11:45:22Z</time>
      </trkpt>
      <trkpt lat="46.00566" lon="6.46967">
        <ele>2254</ele>
        <time>2018-01-29T11:45:24Z</time>
      </trkpt>
      <trkpt lat="46.00577" lon="6.47013">
        <ele>2246</ele>
        <time>2018-01-29T11:45:32Z</time>
      </trkpt>
      <trkpt lat="46.00577" lon="6.4702">
        <ele>2242</ele>
        <time>2018-01-29T11:45:35Z</time>
      </trkpt>
      <trkpt lat="46.00572" lon="6.47029">
        <ele>2240</ele>
        <time>2018-01-29T11:45:37Z</time>
      </trkpt>
      <trkpt lat="46.00566" lon="6.47058">
        <ele>2231</ele>
        <time>2018-01-29T11:45:47Z</time>
      </trkpt>
      <trkpt lat="46.00562" lon="6.47074">
        <ele>2226</ele>
        <time>2018-01-29T11:45:59Z</time>
      </trkpt>
      <trkpt lat="46.00557" lon="6.47075">
        <ele>2224</ele>
        <time>2018-01-29T11:46:01Z</time>
      </trkpt>
      <trkpt lat="46.00546" lon="6.47068">
        <ele>2218</ele>
        <time>2018-01-29T11:46:04Z</time>
      </trkpt>
      <trkpt lat="46.00525" lon="6.47075">
        <ele>2204</ele>
        <time>2018-01-29T11:46:12Z</time>
      </trkpt>
      <trkpt lat="46.00521" lon="6.47088">
        <ele>2198</ele>
        <time>2018-01-29T11:46:16Z</time>
      </trkpt>
      <trkpt lat="46.00517" lon="6.47106">
        <ele>2190</ele>
        <time>2018-01-29T11:46:20Z</time>
      </trkpt>
      <trkpt lat="46.00512" lon="6.47107">
        <ele>2187</ele>
        <time>2018-01-29T11:46:22Z</time>
      </trkpt>
      <trkpt lat="46.00506" lon="6.47108">
        <ele>2183</ele>
        <time>2018-01-29T11:46:24Z</time>
      </trkpt>
      <trkpt lat="46.00502" lon="6.47115">
        <ele>2180</ele>
        <time>2018-01-29T11:46:26Z</time>
      </trkpt>
      <trkpt lat="46.0049" lon="6.47115">
        <ele>2173</ele>
        <time>2018-01-29T11:46:30Z</time>
      </trkpt>
      <trkpt lat="46.00475" lon="6.47092">
        <ele>2165</ele>
        <time>2018-01-29T11:46:35Z</time>
      </trkpt>
      <trkpt lat="46.00466" lon="6.47088">
        <ele>2161</ele>
        <time>2018-01-29T11:46:38Z</time>
      </trkpt>
      <trkpt lat="46.00445" lon="6.47064">
        <ele>2151</ele>
        <time>2018-01-29T11:46:42Z</time>
      </trkpt>
      <trkpt lat="46.00437" lon="6.47052">
        <ele>2147</ele>
        <time>2018-01-29T11:46:45Z</time>
      </trkpt>
      <trkpt lat="46.00428" lon="6.47059">
        <ele>2141</ele>
        <time>2018-01-29T11:46:51Z</time>
      </trkpt>
      <trkpt lat="46.00423" lon="6.47065">
        <ele>2138</ele>
        <time>2018-01-29T11:46:53Z</time>
      </trkpt>
      <trkpt lat="46.00419" lon="6.47067">
        <ele>2134</ele>
        <time>2018-01-29T11:46:55Z</time>
      </trkpt>
      <trkpt lat="46.00412" lon="6.4706">
        <ele>2129</ele>
        <time>2018-01-29T11:47:33Z</time>
      </trkpt>
      <trkpt lat="46.00399" lon="6.47042">
        <ele>2128</ele>
        <time>2018-01-29T11:47:37Z</time>
      </trkpt>
      <trkpt lat="46.00382" lon="6.47031">
        <ele>2125</ele>
        <time>2018-01-29T11:47:41Z</time>
      </trkpt>
      <trkpt lat="46.00364" lon="6.47026">
        <ele>2124</ele>
        <time>2018-01-29T11:47:44Z</time>
      </trkpt>
      <trkpt lat="46.00354" lon="6.47032">
        <ele>2122</ele>
        <time>2018-01-29T11:47:46Z</time>
      </trkpt>
      <trkpt lat="46.0035" lon="6.47039">
        <ele>2121</ele>
        <time>2018-01-29T11:47:48Z</time>
      </trkpt>
      <trkpt lat="46.00344" lon="6.47045">
        <ele>2119</ele>
        <time>2018-01-29T11:47:50Z</time>
      </trkpt>
      <trkpt lat="46.00339" lon="6.47045">
        <ele>2118</ele>
        <time>2018-01-29T11:47:58Z</time>
      </trkpt>
      <trkpt lat="46.00329" lon="6.47055">
        <ele>2116</ele>
        <time>2018-01-29T11:48:26Z</time>
      </trkpt>
      <trkpt lat="46.0032" lon="6.47055">
        <ele>2114</ele>
        <time>2018-01-29T11:48:27Z</time>
      </trkpt>
      <trkpt lat="46.00316" lon="6.47058">
        <ele>2113</ele>
        <time>2018-01-29T11:48:28Z</time>
      </trkpt>
      <trkpt lat="46.00311" lon="6.47071">
        <ele>2111</ele>
        <time>2018-01-29T11:48:30Z</time>
      </trkpt>
      <trkpt lat="46.00307" lon="6.47075">
        <ele>2110</ele>
        <time>2018-01-29T11:48:31Z</time>
      </trkpt>
      <trkpt lat="46.00303" lon="6.47083">
        <ele>2109</ele>
        <time>2018-01-29T11:48:33Z</time>
      </trkpt>
      <trkpt lat="46.00297" lon="6.47088">
        <ele>2107</ele>
        <time>2018-01-29T11:48:35Z</time>
      </trkpt>
      <trkpt lat="46.00295" lon="6.47096">
        <ele>2105</ele>
        <time>2018-01-29T11:48:36Z</time>
      </trkpt>
      <trkpt lat="46.00289" lon="6.47106">
        <ele>2103</ele>
        <time>2018-01-29T11:48:38Z</time>
      </trkpt>
      <trkpt lat="46.0029" lon="6.47114">
        <ele>2102</ele>
        <time>2018-01-29T11:48:39Z</time>
      </trkpt>
      <trkpt lat="46.00286" lon="6.47121">
        <ele>2101</ele>
        <time>2018-01-29T11:48:40Z</time>
      </trkpt>
      <trkpt lat="46.00282" lon="6.47126">
        <ele>2100</ele>
        <time>2018-01-29T11:48:41Z</time>
      </trkpt>
      <trkpt lat="46.00284" lon="6.47136">
        <ele>2098</ele>
        <time>2018-01-29T11:48:43Z</time>
      </trkpt>
      <trkpt lat="46.00277" lon="6.47139">
        <ele>2097</ele>
        <time>2018-01-29T11:48:45Z</time>
      </trkpt>
      <trkpt lat="46.00275" lon="6.47147">
        <ele>2095</ele>
        <time>2018-01-29T11:48:47Z</time>
      </trkpt>
      <trkpt lat="46.00267" lon="6.47149">
        <ele>2093</ele>
        <time>2018-01-29T11:48:49Z</time>
      </trkpt>
      <trkpt lat="46.00256" lon="6.47162">
        <ele>2089</ele>
        <time>2018-01-29T11:48:53Z</time>
      </trkpt>
      <trkpt lat="46.00254" lon="6.47176">
        <ele>2087</ele>
        <time>2018-01-29T11:48:55Z</time>
      </trkpt>
      <trkpt lat="46.00243" lon="6.47191">
        <ele>2084</ele>
        <time>2018-01-29T11:48:59Z</time>
      </trkpt>
      <trkpt lat="46.00239" lon="6.47195">
        <ele>2079</ele>
        <time>2018-01-29T11:49:24Z</time>
      </trkpt>
      <trkpt lat="46.00232" lon="6.47196">
        <ele>2078</ele>
        <time>2018-01-29T11:49:26Z</time>
      </trkpt>
      <trkpt lat="46.00222" lon="6.47203">
        <ele>2074</ele>
        <time>2018-01-29T11:49:30Z</time>
      </trkpt>
      <trkpt lat="46.00213" lon="6.47235">
        <ele>2065</ele>
        <time>2018-01-29T11:49:36Z</time>
      </trkpt>
      <trkpt lat="46.00209" lon="6.47238">
        <ele>2061</ele>
        <time>2018-01-29T11:49:38Z</time>
      </trkpt>
      <trkpt lat="46.00206" lon="6.47247">
        <ele>2058</ele>
        <time>2018-01-29T11:49:40Z</time>
      </trkpt>
      <trkpt lat="46.002" lon="6.47257">
        <ele>2054</ele>
        <time>2018-01-29T11:49:43Z</time>
      </trkpt>
      <trkpt lat="46.0019" lon="6.4726">
        <ele>2052</ele>
        <time>2018-01-29T11:49:44Z</time>
      </trkpt>
      <trkpt lat="46.00181" lon="6.47274">
        <ele>2048</ele>
        <time>2018-01-29T11:49:46Z</time>
      </trkpt>
      <trkpt lat="46.00173" lon="6.47277">
        <ele>2045</ele>
        <time>2018-01-29T11:49:48Z</time>
      </trkpt>
      <trkpt lat="46.00168" lon="6.47274">
        <ele>2043</ele>
        <time>2018-01-29T11:49:49Z</time>
      </trkpt>
      <trkpt lat="46.00162" lon="6.47275">
        <ele>2042</ele>
        <time>2018-01-29T11:49:50Z</time>
      </trkpt>
      <trkpt lat="46.00167" lon="6.4731">
        <ele>2036</ele>
        <time>2018-01-29T11:49:55Z</time>
      </trkpt>
      <trkpt lat="46.00163" lon="6.47318">
        <ele>2034</ele>
        <time>2018-01-29T11:49:57Z</time>
      </trkpt>
      <trkpt lat="46.00157" lon="6.47319">
        <ele>2032</ele>
        <time>2018-01-29T11:49:59Z</time>
      </trkpt>
      <trkpt lat="46.00153" lon="6.47325">
        <ele>2029</ele>
        <time>2018-01-29T11:50:01Z</time>
      </trkpt>
      <trkpt lat="46.0015" lon="6.4737">
        <ele>2016</ele>
        <time>2018-01-29T11:50:10Z</time>
      </trkpt>
      <trkpt lat="46.00141" lon="6.47367">
        <ele>2014</ele>
        <time>2018-01-29T11:50:12Z</time>
      </trkpt>
      <trkpt lat="46.00137" lon="6.47374">
        <ele>2013</ele>
        <time>2018-01-29T11:50:13Z</time>
      </trkpt>
      <trkpt lat="46.00138" lon="6.47385">
        <ele>2010</ele>
        <time>2018-01-29T11:50:15Z</time>
      </trkpt>
      <trkpt lat="46.00135" lon="6.47392">
        <ele>2008</ele>
        <time>2018-01-29T11:50:17Z</time>
      </trkpt>
      <trkpt lat="46.00128" lon="6.47393">
        <ele>2005</ele>
        <time>2018-01-29T11:50:19Z</time>
      </trkpt>
      <trkpt lat="46.00132" lon="6.474">
        <ele>2003</ele>
        <time>2018-01-29T11:50:20Z</time>
      </trkpt>
      <trkpt lat="46.00128" lon="6.47405">
        <ele>2001</ele>
        <time>2018-01-29T11:50:23Z</time>
      </trkpt>
      <trkpt lat="46.00112" lon="6.47395">
        <ele>1996</ele>
        <time>2018-01-29T11:51:37Z</time>
      </trkpt>
      <trkpt lat="46.00089" lon="6.47377">
        <ele>1991</ele>
        <time>2018-01-29T11:51:42Z</time>
      </trkpt>
      <trkpt lat="46.00066" lon="6.47353">
        <ele>1986</ele>
        <time>2018-01-29T11:51:49Z</time>
      </trkpt>
      <trkpt lat="46.00067" lon="6.47375">
        <ele>1983</ele>
        <time>2018-01-29T11:51:54Z</time>
      </trkpt>
      <trkpt lat="46.00069" lon="6.47388">
        <ele>1980</ele>
        <time>2018-01-29T11:51:56Z</time>
      </trkpt>
      <trkpt lat="46.00055" lon="6.47384">
        <ele>1976</ele>
        <time>2018-01-29T11:52:00Z</time>
      </trkpt>
      <trkpt lat="46.00053" lon="6.47393">
        <ele>1970</ele>
        <time>2018-01-29T11:52:03Z</time>
      </trkpt>
      <trkpt lat="46.00046" lon="6.4739">
        <ele>1964</ele>
        <time>2018-01-29T11:52:13Z</time>
      </trkpt>
      <trkpt lat="45.99996" lon="6.47353">
        <ele>1954</ele>
        <time>2018-01-29T11:52:24Z</time>
      </trkpt>
      <trkpt lat="45.99992" lon="6.4735">
        <ele>1953</ele>
        <time>2018-01-29T11:52:39Z</time>
      </trkpt>
      <trkpt lat="45.9998" lon="6.47343">
        <ele>1953</ele>
        <time>2018-01-29T11:52:45Z</time>
      </trkpt>
      <trkpt lat="45.99976" lon="6.47339">
        <ele>1952</ele>
        <time>2018-01-29T11:52:47Z</time>
      </trkpt>
      <trkpt lat="45.99967" lon="6.47343">
        <ele>1947</ele>
        <time>2018-01-29T11:52:56Z</time>
      </trkpt>
      <trkpt lat="45.99967" lon="6.47361">
        <ele>1944</ele>
        <time>2018-01-29T11:53:00Z</time>
      </trkpt>
      <trkpt lat="45.99962" lon="6.47376">
        <ele>1936</ele>
        <time>2018-01-29T11:53:03Z</time>
      </trkpt>
      <trkpt lat="45.99964" lon="6.47391">
        <ele>1932</ele>
        <time>2018-01-29T11:53:06Z</time>
      </trkpt>
      <trkpt lat="45.99957" lon="6.474">
        <ele>1924</ele>
        <time>2018-01-29T11:53:10Z</time>
      </trkpt>
      <trkpt lat="45.99946" lon="6.47403">
        <ele>1917</ele>
        <time>2018-01-29T11:53:18Z</time>
      </trkpt>
      <trkpt lat="45.99942" lon="6.47399">
        <ele>1914</ele>
        <time>2018-01-29T11:53:24Z</time>
      </trkpt>
      <trkpt lat="45.99885" lon="6.47313">
        <ele>1903</ele>
        <time>2018-01-29T11:53:49Z</time>
      </trkpt>
      <trkpt lat="45.99874" lon="6.47311">
        <ele>1901</ele>
        <time>2018-01-29T11:53:53Z</time>
      </trkpt>
      <trkpt lat="45.99882" lon="6.47319">
        <ele>1901</ele>
        <time>2018-01-29T11:53:55Z</time>
      </trkpt>
      <trkpt lat="45.99885" lon="6.47325">
        <ele>1899</ele>
        <time>2018-01-29T11:53:58Z</time>
      </trkpt>
      <trkpt lat="45.99893" lon="6.47326">
        <ele>1896</ele>
        <time>2018-01-29T11:54:46Z</time>
      </trkpt>
      <trkpt lat="45.99897" lon="6.47334">
        <ele>1894</ele>
        <time>2018-01-29T11:55:03Z</time>
      </trkpt>
      <trkpt lat="45.99892" lon="6.47351">
        <ele>1891</ele>
        <time>2018-01-29T11:55:06Z</time>
      </trkpt>
      <trkpt lat="45.99892" lon="6.47363">
        <ele>1889</ele>
        <time>2018-01-29T11:55:08Z</time>
      </trkpt>
      <trkpt lat="45.99886" lon="6.47369">
        <ele>1887</ele>
        <time>2018-01-29T11:55:09Z</time>
      </trkpt>
      <trkpt lat="45.9988" lon="6.47379">
        <ele>1884</ele>
        <time>2018-01-29T11:55:12Z</time>
      </trkpt>
      <trkpt lat="45.99876" lon="6.474">
        <ele>1879</ele>
        <time>2018-01-29T11:55:15Z</time>
      </trkpt>
      <trkpt lat="45.99874" lon="6.4741">
        <ele>1875</ele>
        <time>2018-01-29T11:55:17Z</time>
      </trkpt>
      <trkpt lat="45.99874" lon="6.47418">
        <ele>1873</ele>
        <time>2018-01-29T11:55:18Z</time>
      </trkpt>
      <trkpt lat="45.99873" lon="6.47425">
        <ele>1871</ele>
        <time>2018-01-29T11:55:19Z</time>
      </trkpt>
      <trkpt lat="45.99872" lon="6.47433">
        <ele>1869</ele>
        <time>2018-01-29T11:55:20Z</time>
      </trkpt>
      <trkpt lat="45.99872" lon="6.47451">
        <ele>1865</ele>
        <time>2018-01-29T11:55:23Z</time>
      </trkpt>
      <trkpt lat="45.99863" lon="6.47451">
        <ele>1863</ele>
        <time>2018-01-29T11:55:24Z</time>
      </trkpt>
      <trkpt lat="45.99861" lon="6.47457">
        <ele>1862</ele>
        <time>2018-01-29T11:55:25Z</time>
      </trkpt>
      <trkpt lat="45.9986" lon="6.47464">
        <ele>1860</ele>
        <time>2018-01-29T11:55:26Z</time>
      </trkpt>
      <trkpt lat="45.99858" lon="6.47479">
        <ele>1857</ele>
        <time>2018-01-29T11:55:29Z</time>
      </trkpt>
      <trkpt lat="45.99851" lon="6.47492">
        <ele>1854</ele>
        <time>2018-01-29T11:55:31Z</time>
      </trkpt>
      <trkpt lat="45.99848" lon="6.47507">
        <ele>1851</ele>
        <time>2018-01-29T11:55:33Z</time>
      </trkpt>
      <trkpt lat="45.99851" lon="6.47526">
        <ele>1847</ele>
        <time>2018-01-29T11:55:36Z</time>
      </trkpt>
      <trkpt lat="45.99844" lon="6.47538">
        <ele>1845</ele>
        <time>2018-01-29T11:55:38Z</time>
      </trkpt>
      <trkpt lat="45.99837" lon="6.4754">
        <ele>1841</ele>
        <time>2018-01-29T11:55:40Z</time>
      </trkpt>
      <trkpt lat="45.99832" lon="6.4754">
        <ele>1840</ele>
        <time>2018-01-29T11:55:41Z</time>
      </trkpt>
      <trkpt lat="45.99832" lon="6.47548">
        <ele>1837</ele>
        <time>2018-01-29T11:55:43Z</time>
      </trkpt>
      <trkpt lat="45.99837" lon="6.47546">
        <ele>1833</ele>
        <time>2018-01-29T11:56:30Z</time>
      </trkpt>
      <trkpt lat="45.99843" lon="6.47549">
        <ele>1832</ele>
        <time>2018-01-29T11:57:20Z</time>
      </trkpt>
      <trkpt lat="45.99849" lon="6.47555">
        <ele>1831</ele>
        <time>2018-01-29T11:57:22Z</time>
      </trkpt>
      <trkpt lat="45.99848" lon="6.47563">
        <ele>1830</ele>
        <time>2018-01-29T11:57:24Z</time>
      </trkpt>
      <trkpt lat="45.99841" lon="6.47575">
        <ele>1826</ele>
        <time>2018-01-29T11:57:28Z</time>
      </trkpt>
      <trkpt lat="45.99838" lon="6.47579">
        <ele>1823</ele>
        <time>2018-01-29T11:57:30Z</time>
      </trkpt>
      <trkpt lat="45.99837" lon="6.47596">
        <ele>1816</ele>
        <time>2018-01-29T11:57:35Z</time>
      </trkpt>
      <trkpt lat="45.99839" lon="6.47606">
        <ele>1814</ele>
        <time>2018-01-29T11:57:37Z</time>
      </trkpt>
      <trkpt lat="45.99834" lon="6.47631">
        <ele>1803</ele>
        <time>2018-01-29T11:57:44Z</time>
      </trkpt>
      <trkpt lat="45.99834" lon="6.47635">
        <ele>1795</ele>
        <time>2018-01-29T11:57:50Z</time>
      </trkpt>
      <trkpt lat="45.99828" lon="6.47634">
        <ele>1791</ele>
        <time>2018-01-29T11:57:53Z</time>
      </trkpt>
      <trkpt lat="45.99819" lon="6.47628">
        <ele>1788</ele>
        <time>2018-01-29T11:57:55Z</time>
      </trkpt>
      <trkpt lat="45.99789" lon="6.47623">
        <ele>1781</ele>
        <time>2018-01-29T11:58:02Z</time>
      </trkpt>
      <trkpt lat="45.99773" lon="6.47624">
        <ele>1778</ele>
        <time>2018-01-29T11:58:06Z</time>
      </trkpt>
      <trkpt lat="45.99759" lon="6.47632">
        <ele>1775</ele>
        <time>2018-01-29T11:58:09Z</time>
      </trkpt>
      <trkpt lat="45.99758" lon="6.47639">
        <ele>1774</ele>
        <time>2018-01-29T11:58:10Z</time>
      </trkpt>
      <trkpt lat="45.99754" lon="6.47645">
        <ele>1773</ele>
        <time>2018-01-29T11:58:12Z</time>
      </trkpt>
      <trkpt lat="45.99747" lon="6.47639">
        <ele>1772</ele>
        <time>2018-01-29T11:59:13Z</time>
      </trkpt>
      <trkpt lat="45.99735" lon="6.47623">
        <ele>1770</ele>
        <time>2018-01-29T11:59:17Z</time>
      </trkpt>
      <trkpt lat="45.99724" lon="6.47618">
        <ele>1768</ele>
        <time>2018-01-29T11:59:21Z</time>
      </trkpt>
      <trkpt lat="45.9972" lon="6.47617">
        <ele>1768</ele>
        <time>2018-01-29T11:59:23Z</time>
      </trkpt>
      <trkpt lat="45.997" lon="6.47618">
        <ele>1765</ele>
        <time>2018-01-29T11:59:29Z</time>
      </trkpt>
      <trkpt lat="45.99689" lon="6.47616">
        <ele>1764</ele>
        <time>2018-01-29T11:59:34Z</time>
      </trkpt>
      <trkpt lat="45.99646" lon="6.47596">
        <ele>1759</ele>
        <time>2018-01-29T11:59:49Z</time>
      </trkpt>
      <trkpt lat="45.9964" lon="6.47592">
        <ele>1758</ele>
        <time>2018-01-29T11:59:51Z</time>
      </trkpt>
      <trkpt lat="45.99633" lon="6.47579">
        <ele>1757</ele>
        <time>2018-01-29T11:59:55Z</time>
      </trkpt>
      <trkpt lat="45.99626" lon="6.47554">
        <ele>1755</ele>
        <time>2018-01-29T12:00:05Z</time>
      </trkpt>
      <trkpt lat="45.99609" lon="6.47522">
        <ele>1754</ele>
        <time>2018-01-29T12:00:25Z</time>
      </trkpt>
      <trkpt lat="45.99597" lon="6.47542">
        <ele>1753</ele>
        <time>2018-01-29T12:00:40Z</time>
      </trkpt>
      <trkpt lat="45.99594" lon="6.47551">
        <ele>1752</ele>
        <time>2018-01-29T12:00:55Z</time>
      </trkpt>
      <trkpt lat="45.99586" lon="6.47556">
        <ele>1752</ele>
        <time>2018-01-29T12:01:17Z</time>
      </trkpt>
      <trkpt lat="45.9958" lon="6.47555">
        <ele>1752</ele>
        <time>2018-01-29T12:01:22Z</time>
      </trkpt>
      <trkpt lat="45.99566" lon="6.47559">
        <ele>1751</ele>
        <time>2018-01-29T12:01:26Z</time>
      </trkpt>
      <trkpt lat="45.99536" lon="6.47573">
        <ele>1750</ele>
        <time>2018-01-29T12:01:40Z</time>
      </trkpt>
      <trkpt lat="45.9953" lon="6.47572">
        <ele>1749</ele>
        <time>2018-01-29T12:01:44Z</time>
      </trkpt>
      <trkpt lat="45.99505" lon="6.47558">
        <ele>1747</ele>
        <time>2018-01-29T12:01:54Z</time>
      </trkpt>
      <trkpt lat="45.99501" lon="6.47554">
        <ele>1747</ele>
        <time>2018-01-29T12:01:56Z</time>
      </trkpt>
      <trkpt lat="45.99489" lon="6.4754">
        <ele>1746</ele>
        <time>2018-01-29T12:02:28Z</time>
      </trkpt>
      <trkpt lat="45.99484" lon="6.47531">
        <ele>1745</ele>
        <time>2018-01-29T12:03:09Z</time>
      </trkpt>
      <trkpt lat="45.99466" lon="6.47505">
        <ele>1741</ele>
        <time>2018-01-29T12:03:17Z</time>
      </trkpt>
      <trkpt lat="45.99459" lon="6.47489">
        <ele>1739</ele>
        <time>2018-01-29T12:03:21Z</time>
      </trkpt>
      <trkpt lat="45.99454" lon="6.47485">
        <ele>1738</ele>
        <time>2018-01-29T12:03:24Z</time>
      </trkpt>
      <trkpt lat="45.99447" lon="6.47464">
        <ele>1735</ele>
        <time>2018-01-29T12:03:28Z</time>
      </trkpt>
      <trkpt lat="45.99407" lon="6.47427">
        <ele>1725</ele>
        <time>2018-01-29T12:03:38Z</time>
      </trkpt>
      <trkpt lat="45.99406" lon="6.4742">
        <ele>1725</ele>
        <time>2018-01-29T12:03:40Z</time>
      </trkpt>
      <trkpt lat="45.99397" lon="6.47408">
        <ele>1723</ele>
        <time>2018-01-29T12:03:43Z</time>
      </trkpt>
      <trkpt lat="45.99385" lon="6.47401">
        <ele>1720</ele>
        <time>2018-01-29T12:03:48Z</time>
      </trkpt>
      <trkpt lat="45.99385" lon="6.47393">
        <ele>1718</ele>
        <time>2018-01-29T12:03:51Z</time>
      </trkpt>
      <trkpt lat="45.99374" lon="6.4739">
        <ele>1717</ele>
        <time>2018-01-29T12:03:53Z</time>
      </trkpt>
      <trkpt lat="45.99374" lon="6.47383">
        <ele>1716</ele>
        <time>2018-01-29T12:03:55Z</time>
      </trkpt>
      <trkpt lat="45.99366" lon="6.47385">
        <ele>1714</ele>
        <time>2018-01-29T12:03:58Z</time>
      </trkpt>
      <trkpt lat="45.99363" lon="6.47395">
        <ele>1714</ele>
        <time>2018-01-29T12:03:59Z</time>
      </trkpt>
      <trkpt lat="45.99357" lon="6.474">
        <ele>1710</ele>
        <time>2018-01-29T12:04:04Z</time>
      </trkpt>
      <trkpt lat="45.99354" lon="6.47409">
        <ele>1708</ele>
        <time>2018-01-29T12:04:06Z</time>
      </trkpt>
      <trkpt lat="45.99349" lon="6.47413">
        <ele>1706</ele>
        <time>2018-01-29T12:04:08Z</time>
      </trkpt>
      <trkpt lat="45.9934" lon="6.47408">
        <ele>1704</ele>
        <time>2018-01-29T12:04:11Z</time>
      </trkpt>
      <trkpt lat="45.99328" lon="6.47389">
        <ele>1700</ele>
        <time>2018-01-29T12:04:17Z</time>
      </trkpt>
      <trkpt lat="45.99321" lon="6.47379">
        <ele>1697</ele>
        <time>2018-01-29T12:04:21Z</time>
      </trkpt>
      <trkpt lat="45.99303" lon="6.47364">
        <ele>1690</ele>
        <time>2018-01-29T12:04:29Z</time>
      </trkpt>
      <trkpt lat="45.99264" lon="6.47298">
        <ele>1679</ele>
        <time>2018-01-29T12:04:39Z</time>
      </trkpt>
      <trkpt lat="45.99261" lon="6.47285">
        <ele>1678</ele>
        <time>2018-01-29T12:04:54Z</time>
      </trkpt>
      <trkpt lat="45.99257" lon="6.4728">
        <ele>1678</ele>
        <time>2018-01-29T12:05:21Z</time>
      </trkpt>
      <trkpt lat="45.9925" lon="6.47289">
        <ele>1676</ele>
        <time>2018-01-29T12:06:11Z</time>
      </trkpt>
      <trkpt lat="45.99248" lon="6.47298">
        <ele>1675</ele>
        <time>2018-01-29T12:06:13Z</time>
      </trkpt>
      <trkpt lat="45.99235" lon="6.47283">
        <ele>1672</ele>
        <time>2018-01-29T12:06:16Z</time>
      </trkpt>
      <trkpt lat="45.99228" lon="6.47271">
        <ele>1669</ele>
        <time>2018-01-29T12:06:18Z</time>
      </trkpt>
      <trkpt lat="45.99219" lon="6.4726">
        <ele>1666</ele>
        <time>2018-01-29T12:06:22Z</time>
      </trkpt>
      <trkpt lat="45.99216" lon="6.47269">
        <ele>1665</ele>
        <time>2018-01-29T12:06:23Z</time>
      </trkpt>
      <trkpt lat="45.99212" lon="6.47272">
        <ele>1660</ele>
        <time>2018-01-29T12:06:27Z</time>
      </trkpt>
      <trkpt lat="45.99201" lon="6.47277">
        <ele>1657</ele>
        <time>2018-01-29T12:06:31Z</time>
      </trkpt>
      <trkpt lat="45.99162" lon="6.47224">
        <ele>1642</ele>
        <time>2018-01-29T12:06:49Z</time>
      </trkpt>
      <trkpt lat="45.99148" lon="6.47212">
        <ele>1636</ele>
        <time>2018-01-29T12:06:54Z</time>
      </trkpt>
      <trkpt lat="45.99146" lon="6.47203">
        <ele>1634</ele>
        <time>2018-01-29T12:06:57Z</time>
      </trkpt>
      <trkpt lat="45.99153" lon="6.47201">
        <ele>1631</ele>
        <time>2018-01-29T12:07:03Z</time>
      </trkpt>
      <trkpt lat="45.99149" lon="6.47194">
        <ele>1628</ele>
        <time>2018-01-29T12:07:50Z</time>
      </trkpt>
      <trkpt lat="45.99141" lon="6.47179">
        <ele>1628</ele>
        <time>2018-01-29T12:07:53Z</time>
      </trkpt>
      <trkpt lat="45.99135" lon="6.47183">
        <ele>1620</ele>
        <time>2018-01-29T12:08:00Z</time>
      </trkpt>
      <trkpt lat="45.99125" lon="6.47192">
        <ele>1615</ele>
        <time>2018-01-29T12:08:04Z</time>
      </trkpt>
      <trkpt lat="45.99123" lon="6.47198">
        <ele>1613</ele>
        <time>2018-01-29T12:08:05Z</time>
      </trkpt>
      <trkpt lat="45.99123" lon="6.47204">
        <ele>1612</ele>
        <time>2018-01-29T12:08:06Z</time>
      </trkpt>
      <trkpt lat="45.99125" lon="6.4723">
        <ele>1606</ele>
        <time>2018-01-29T12:08:12Z</time>
      </trkpt>
      <trkpt lat="45.99123" lon="6.47238">
        <ele>1603</ele>
        <time>2018-01-29T12:08:52Z</time>
      </trkpt>
      <trkpt lat="45.99124" lon="6.47271">
        <ele>1599</ele>
        <time>2018-01-29T12:08:58Z</time>
      </trkpt>
      <trkpt lat="45.99107" lon="6.47265">
        <ele>1597</ele>
        <time>2018-01-29T12:09:21Z</time>
      </trkpt>
      <trkpt lat="45.99093" lon="6.47249">
        <ele>1592</ele>
        <time>2018-01-29T12:09:23Z</time>
      </trkpt>
      <trkpt lat="45.9905" lon="6.47139">
        <ele>1580</ele>
        <time>2018-01-29T12:10:00Z</time>
      </trkpt>
      <trkpt lat="45.99028" lon="6.47067">
        <ele>1575</ele>
        <time>2018-01-29T12:10:10Z</time>
      </trkpt>
      <trkpt lat="45.99009" lon="6.47028">
        <ele>1572</ele>
        <time>2018-01-29T12:10:20Z</time>
      </trkpt>
      <trkpt lat="45.99001" lon="6.47019">
        <ele>1571</ele>
        <time>2018-01-29T12:10:25Z</time>
      </trkpt>
      <trkpt lat="45.99001" lon="6.47027">
        <ele>1571</ele>
        <time>2018-01-29T12:10:27Z</time>
      </trkpt>
      <trkpt lat="45.98998" lon="6.47036">
        <ele>1569</ele>
        <time>2018-01-29T12:10:29Z</time>
      </trkpt>
      <trkpt lat="45.9899" lon="6.4704">
        <ele>1568</ele>
        <time>2018-01-29T12:10:31Z</time>
      </trkpt>
      <trkpt lat="45.9898" lon="6.4704">
        <ele>1567</ele>
        <time>2018-01-29T12:10:33Z</time>
      </trkpt>
      <trkpt lat="45.98975" lon="6.4703">
        <ele>1565</ele>
        <time>2018-01-29T12:10:35Z</time>
      </trkpt>
      <trkpt lat="45.98972" lon="6.46983">
        <ele>1561</ele>
        <time>2018-01-29T12:10:41Z</time>
      </trkpt>
      <trkpt lat="45.9896" lon="6.46948">
        <ele>1556</ele>
        <time>2018-01-29T12:10:48Z</time>
      </trkpt>
      <trkpt lat="45.98956" lon="6.4693">
        <ele>1553</ele>
        <time>2018-01-29T12:10:50Z</time>
      </trkpt>
      <trkpt lat="45.98949" lon="6.46941">
        <ele>1548</ele>
        <time>2018-01-29T12:12:12Z</time>
      </trkpt>
      <trkpt lat="45.9894" lon="6.46935">
        <ele>1547</ele>
        <time>2018-01-29T12:12:15Z</time>
      </trkpt>
      <trkpt lat="45.9894" lon="6.46989">
        <ele>1540</ele>
        <time>2018-01-29T12:12:28Z</time>
      </trkpt>
      <trkpt lat="45.98931" lon="6.47003">
        <ele>1538</ele>
        <time>2018-01-29T12:12:33Z</time>
      </trkpt>
      <trkpt lat="45.98923" lon="6.47012">
        <ele>1537</ele>
        <time>2018-01-29T12:12:34Z</time>
      </trkpt>
      <trkpt lat="45.98902" lon="6.47048">
        <ele>1531</ele>
        <time>2018-01-29T12:12:40Z</time>
      </trkpt>
      <trkpt lat="45.98892" lon="6.47057">
        <ele>1530</ele>
        <time>2018-01-29T12:12:43Z</time>
      </trkpt>
      <trkpt lat="45.98848" lon="6.47084">
        <ele>1525</ele>
        <time>2018-01-29T12:12:53Z</time>
      </trkpt>
      <trkpt lat="45.98832" lon="6.47086">
        <ele>1524</ele>
        <time>2018-01-29T12:12:57Z</time>
      </trkpt>
      <trkpt lat="45.9881" lon="6.47084">
        <ele>1523</ele>
        <time>2018-01-29T12:13:02Z</time>
      </trkpt>
      <trkpt lat="45.98798" lon="6.4708">
        <ele>1522</ele>
        <time>2018-01-29T12:13:04Z</time>
      </trkpt>
      <trkpt lat="45.98791" lon="6.47071">
        <ele>1521</ele>
        <time>2018-01-29T12:13:06Z</time>
      </trkpt>
      <trkpt lat="45.98787" lon="6.47065">
        <ele>1521</ele>
        <time>2018-01-29T12:13:07Z</time>
      </trkpt>
      <trkpt lat="45.98782" lon="6.47061">
        <ele>1521</ele>
        <time>2018-01-29T12:13:08Z</time>
      </trkpt>
      <trkpt lat="45.98766" lon="6.47024">
        <ele>1518</ele>
        <time>2018-01-29T12:13:15Z</time>
      </trkpt>
      <trkpt lat="45.9875" lon="6.47005">
        <ele>1517</ele>
        <time>2018-01-29T12:13:20Z</time>
      </trkpt>
      <trkpt lat="45.98733" lon="6.46953">
        <ele>1513</ele>
        <time>2018-01-29T12:13:29Z</time>
      </trkpt>
      <trkpt lat="45.98724" lon="6.4695">
        <ele>1513</ele>
        <time>2018-01-29T12:13:31Z</time>
      </trkpt>
      <trkpt lat="45.9872" lon="6.46945">
        <ele>1512</ele>
        <time>2018-01-29T12:13:32Z</time>
      </trkpt>
      <trkpt lat="45.98699" lon="6.46931">
        <ele>1511</ele>
        <time>2018-01-29T12:13:37Z</time>
      </trkpt>
      <trkpt lat="45.98619" lon="6.46727">
        <ele>1499</ele>
        <time>2018-01-29T12:14:08Z</time>
      </trkpt>
      <trkpt lat="45.98609" lon="6.46701">
        <ele>1497</ele>
        <time>2018-01-29T12:14:11Z</time>
      </trkpt>
      <trkpt lat="45.98581" lon="6.46659">
        <ele>1493</ele>
        <time>2018-01-29T12:14:17Z</time>
      </trkpt>
      <trkpt lat="45.98574" lon="6.46653">
        <ele>1492</ele>
        <time>2018-01-29T12:14:18Z</time>
      </trkpt>
      <trkpt lat="45.98527" lon="6.46615">
        <ele>1487</ele>
        <time>2018-01-29T12:14:28Z</time>
      </trkpt>
      <trkpt lat="45.98505" lon="6.46609">
        <ele>1486</ele>
        <time>2018-01-29T12:15:16Z</time>
      </trkpt>
      <trkpt lat="45.985" lon="6.46603">
        <ele>1486</ele>
        <time>2018-01-29T12:15:41Z</time>
      </trkpt>
      <trkpt lat="45.98483" lon="6.46596">
        <ele>1484</ele>
        <time>2018-01-29T12:15:47Z</time>
      </trkpt>
      <trkpt lat="45.98468" lon="6.46588">
        <ele>1483</ele>
        <time>2018-01-29T12:15:51Z</time>
      </trkpt>
      <trkpt lat="45.98396" lon="6.46558">
        <ele>1476</ele>
        <time>2018-01-29T12:16:06Z</time>
      </trkpt>
      <trkpt lat="45.98385" lon="6.4655">
        <ele>1475</ele>
        <time>2018-01-29T12:16:08Z</time>
      </trkpt>
      <trkpt lat="45.98356" lon="6.46546">
        <ele>1473</ele>
        <time>2018-01-29T12:16:13Z</time>
      </trkpt>
      <trkpt lat="45.98349" lon="6.46542">
        <ele>1472</ele>
        <time>2018-01-29T12:16:14Z</time>
      </trkpt>
      <trkpt lat="45.98271" lon="6.4653">
        <ele>1465</ele>
        <time>2018-01-29T12:16:29Z</time>
      </trkpt>
      <trkpt lat="45.98137" lon="6.46563">
        <ele>1451</ele>
        <time>2018-01-29T12:16:57Z</time>
      </trkpt>
      <trkpt lat="45.9812" lon="6.46571">
        <ele>1450</ele>
        <time>2018-01-29T12:17:00Z</time>
      </trkpt>
      <trkpt lat="45.98088" lon="6.46578">
        <ele>1447</ele>
        <time>2018-01-29T12:17:06Z</time>
      </trkpt>
      <trkpt lat="45.98025" lon="6.46594">
        <ele>1441</ele>
        <time>2018-01-29T12:17:18Z</time>
      </trkpt>
      <trkpt lat="45.97918" lon="6.46693">
        <ele>1431</ele>
        <time>2018-01-29T12:17:41Z</time>
      </trkpt>
      <trkpt lat="45.97893" lon="6.46728">
        <ele>1428</ele>
        <time>2018-01-29T12:17:48Z</time>
      </trkpt>
      <trkpt lat="45.97832" lon="6.4686">
        <ele>1420</ele>
        <time>2018-01-29T12:18:14Z</time>
      </trkpt>
      <trkpt lat="45.9782" lon="6.4687">
        <ele>1419</ele>
        <time>2018-01-29T12:18:19Z</time>
      </trkpt>
      <trkpt lat="45.97815" lon="6.46874">
        <ele>1419</ele>
        <time>2018-01-29T12:18:21Z</time>
      </trkpt>
      <trkpt lat="45.97811" lon="6.4688">
        <ele>1418</ele>
        <time>2018-01-29T12:18:23Z</time>
      </trkpt>
      <trkpt lat="45.978" lon="6.46889">
        <ele>1417</ele>
        <time>2018-01-29T12:18:33Z</time>
      </trkpt>
      <trkpt lat="45.97794" lon="6.46895">
        <ele>1416</ele>
        <time>2018-01-29T12:18:41Z</time>
      </trkpt>
      <trkpt lat="45.97753" lon="6.46907">
        <ele>1413</ele>
        <time>2018-01-29T12:19:10Z</time>
      </trkpt>
      <trkpt lat="45.97744" lon="6.46913">
        <ele>1412</ele>
        <time>2018-01-29T12:19:15Z</time>
      </trkpt>
    </trkseg>
  </trk>
</gpx>